Time,TemperatureF,DewpointF,PressureIn,WindDirection,WindDirectionDegrees,WindSpeedMPH,WindSpeedGustMPH,Humidity,HourlyPrecipIn,Conditions,Clouds,dailyrainin,SoftwareType,DateUTC
2013-01-17 00:00:00,32.9,29.2,29.12,NNE,33,8.1,8.1,86,0.00,,,0.00,VWS V14.01,2013-01-17 05:00:00,
2013-01-17 00:01:00,32.9,29.2,29.12,NNE,31,3.1,8.1,86,0.00,,,0.00,VWS V14.01,2013-01-17 05:01:00,
2013-01-17 00:05:00,32.5,28.8,29.12,ENE,58,5.8,5.8,86,0.00,,,0.00,VWS V14.01,2013-01-17 05:05:00,
2013-01-17 00:06:00,32.5,28.8,29.12,ENE,58,5.8,5.8,86,0.00,,,0.00,VWS V14.01,2013-01-17 05:06:00,
2013-01-17 00:10:00,32.5,29.1,29.12,NNE,32,5.8,5.8,87,0.00,,,0.00,VWS V14.01,2013-01-17 05:10:00,
2013-01-17 00:11:00,32.4,28.9,29.12,NNE,32,5.8,5.8,87,0.00,,,0.00,VWS V14.01,2013-01-17 05:11:00,
2013-01-17 00:15:00,32.4,28.9,29.12,NE,44,5.8,5.8,87,0.00,,,0.00,VWS V14.01,2013-01-17 05:15:00,
2013-01-17 00:16:00,32.4,28.9,29.12,NE,44,5.8,5.8,87,0.00,,,0.00,VWS V14.01,2013-01-17 05:16:00,
2013-01-17 00:20:00,32.4,28.9,29.12,NE,47,6.3,6.3,87,0.00,,,0.00,VWS V14.01,2013-01-17 05:20:00,
2013-01-17 00:21:00,32.4,28.9,29.12,NE,47,6.3,6.3,87,0.00,,,0.00,VWS V14.01,2013-01-17 05:21:00,
2013-01-17 00:25:00,32.4,28.9,29.12,NE,35,6.3,6.3,87,0.00,,,0.00,VWS V14.01,2013-01-17 05:25:00,
2013-01-17 00:26:00,32.4,28.9,29.12,NE,37,6.3,6.3,87,0.00,,,0.00,VWS V14.01,2013-01-17 05:26:00,
2013-01-17 00:30:00,32.0,28.6,29.12,NE,42,5.8,5.8,87,0.00,,,0.00,VWS V14.01,2013-01-17 05:30:00,
2013-01-17 00:31:00,32.0,28.6,29.12,NE,42,5.8,5.8,87,0.00,,,0.00,VWS V14.01,2013-01-17 05:31:00,
2013-01-17 00:35:00,32.0,28.6,29.12,NE,50,5.8,8.3,87,0.00,,,0.00,VWS V14.01,2013-01-17 05:35:00,
2013-01-17 00:36:00,32.0,28.6,29.12,NE,50,5.8,8.3,87,0.00,,,0.00,VWS V14.01,2013-01-17 05:36:00,
2013-01-17 00:40:00,31.8,28.7,29.12,NE,50,5.8,5.8,88,0.00,,,0.00,VWS V14.01,2013-01-17 05:40:00,
2013-01-17 00:41:00,31.8,28.7,29.12,NE,50,5.8,5.8,88,0.00,,,0.00,VWS V14.01,2013-01-17 05:41:00,
2013-01-17 00:45:00,31.8,28.7,29.12,NE,37,5.4,5.4,88,0.00,,,0.00,VWS V14.01,2013-01-17 05:45:00,
2013-01-17 00:46:00,31.8,28.7,29.12,NNE,32,5.8,5.8,88,0.00,,,0.00,VWS V14.01,2013-01-17 05:46:00,
2013-01-17 00:50:00,31.8,28.7,29.12,NNE,25,4.9,4.9,88,0.00,,,0.00,VWS V14.01,2013-01-17 05:50:00,
2013-01-17 00:51:00,31.8,28.7,29.12,NE,56,4.0,4.0,88,0.00,,,0.00,VWS V14.01,2013-01-17 05:51:00,
2013-01-17 00:52:00,31.8,28.7,29.12,NE,56,4.0,4.0,88,0.00,,,0.00,VWS V14.01,2013-01-17 05:52:00,
2013-01-17 00:55:00,31.5,28.3,29.12,NE,38,5.4,5.4,88,0.00,,,0.00,VWS V14.01,2013-01-17 05:55:00,
2013-01-17 00:56:00,31.5,28.3,29.12,NE,38,5.4,5.4,88,0.00,,,0.00,VWS V14.01,2013-01-17 05:56:00,
2013-01-17 00:57:00,31.5,28.3,29.12,NE,42,5.4,5.4,88,0.00,,,0.00,VWS V14.01,2013-01-17 05:57:00,
2013-01-17 01:00:00,31.5,28.3,29.12,NNE,27,4.0,4.0,88,0.00,,,0.00,VWS V14.01,2013-01-17 06:00:00,
2013-01-17 01:01:00,31.5,28.3,29.12,NE,44,4.0,4.0,88,0.00,,,0.00,VWS V14.01,2013-01-17 06:01:00,
2013-01-17 01:02:00,31.5,28.3,29.12,NE,44,4.0,4.0,88,0.00,,,0.00,VWS V14.01,2013-01-17 06:02:00,
2013-01-17 01:06:00,31.1,28.0,29.12,NE,35,4.0,5.4,88,0.00,,,0.00,VWS V14.01,2013-01-17 06:06:00,
2013-01-17 01:07:00,31.1,28.0,29.12,NE,35,4.0,4.0,88,0.00,,,0.00,VWS V14.01,2013-01-17 06:07:00,
2013-01-17 01:11:00,31.1,28.0,29.15,NE,40,3.6,3.6,88,0.00,,,0.00,VWS V14.01,2013-01-17 06:11:00,
2013-01-17 01:12:00,31.1,28.0,29.15,NE,40,3.6,3.6,88,0.00,,,0.00,VWS V14.01,2013-01-17 06:12:00,
2013-01-17 01:16:00,31.1,28.0,29.15,NE,41,5.4,5.4,88,0.00,,,0.00,VWS V14.01,2013-01-17 06:16:00,
2013-01-17 01:17:00,31.1,28.0,29.15,NE,41,5.4,5.4,88,0.00,,,0.00,VWS V14.01,2013-01-17 06:17:00,
2013-01-17 01:21:00,31.1,28.0,29.15,NNE,31,3.6,3.6,88,0.00,,,0.00,VWS V14.01,2013-01-17 06:21:00,
2013-01-17 01:22:00,31.1,28.0,29.15,NE,41,4.9,4.9,88,0.00,,,0.00,VWS V14.01,2013-01-17 06:22:00,
2013-01-17 01:26:00,31.1,28.0,29.15,NNE,32,3.1,3.1,88,0.00,,,0.00,VWS V14.01,2013-01-17 06:26:00,
2013-01-17 01:27:00,31.1,28.0,29.15,NE,38,3.6,3.6,88,0.00,,,0.00,VWS V14.01,2013-01-17 06:27:00,
2013-01-17 01:31:00,31.1,28.2,29.15,NE,40,2.7,3.1,89,0.00,,,0.00,VWS V14.01,2013-01-17 06:31:00,
2013-01-17 01:32:00,31.1,28.2,29.15,NE,40,4.0,4.0,89,0.00,,,0.00,VWS V14.01,2013-01-17 06:32:00,
2013-01-17 01:36:00,31.1,28.2,29.15,NE,40,5.8,5.8,89,0.00,,,0.00,VWS V14.01,2013-01-17 06:36:00,
2013-01-17 01:37:00,31.1,28.2,29.15,NE,40,2.7,2.7,89,0.00,,,0.00,VWS V14.01,2013-01-17 06:37:00,
2013-01-17 01:41:00,31.1,28.2,29.15,NE,44,3.1,3.1,89,0.00,,,0.00,VWS V14.01,2013-01-17 06:41:00,
2013-01-17 01:42:00,31.1,28.2,29.15,NE,44,3.1,3.1,89,0.00,,,0.00,VWS V14.01,2013-01-17 06:42:00,
2013-01-17 01:43:00,31.1,28.2,29.15,NE,44,3.6,3.6,89,0.00,,,0.00,VWS V14.01,2013-01-17 06:43:00,
2013-01-17 01:46:00,31.1,28.2,29.15,NE,41,4.0,4.0,89,0.00,,,0.00,VWS V14.01,2013-01-17 06:46:00,
2013-01-17 01:47:00,31.1,28.2,29.15,NE,41,4.0,4.0,89,0.00,,,0.00,VWS V14.01,2013-01-17 06:47:00,
2013-01-17 01:48:00,31.1,28.2,29.15,NE,41,4.0,4.0,89,0.00,,,0.00,VWS V14.01,2013-01-17 06:48:00,
2013-01-17 01:51:00,31.1,28.2,29.15,NE,42,3.1,3.1,89,0.00,,,0.00,VWS V14.01,2013-01-17 06:51:00,
2013-01-17 01:52:00,31.1,28.2,29.15,NE,42,3.1,3.1,89,0.00,,,0.00,VWS V14.01,2013-01-17 06:52:00,
2013-01-17 01:53:00,31.1,28.2,29.15,NE,42,2.7,3.1,89,0.00,,,0.00,VWS V14.01,2013-01-17 06:53:00,
2013-01-17 01:56:00,31.3,28.4,29.15,NE,38,4.0,4.0,89,0.00,,,0.00,VWS V14.01,2013-01-17 06:56:00,
2013-01-17 01:57:00,31.3,28.4,29.15,NE,38,0.0,4.0,89,0.00,,,0.00,VWS V14.01,2013-01-17 06:57:00,
2013-01-17 01:58:00,31.3,28.4,29.15,NE,38,4.0,4.0,89,0.00,,,0.00,VWS V14.01,2013-01-17 06:58:00,
2013-01-17 02:02:00,31.3,28.4,29.15,NE,38,2.7,2.7,89,0.00,,,0.00,VWS V14.01,2013-01-17 07:02:00,
2013-01-17 02:03:00,31.3,28.4,29.15,NE,38,2.7,2.7,89,0.00,,,0.00,VWS V14.01,2013-01-17 07:03:00,
2013-01-17 02:07:00,31.3,28.7,29.15,NE,51,2.7,2.7,90,0.00,,,0.00,VWS V14.01,2013-01-17 07:07:00,
2013-01-17 02:08:00,31.3,28.7,29.15,NE,51,2.7,2.7,90,0.00,,,0.00,VWS V14.01,2013-01-17 07:08:00,
2013-01-17 02:12:00,31.5,28.9,29.15,NE,42,2.7,2.7,90,0.00,,,0.00,VWS V14.01,2013-01-17 07:12:00,
2013-01-17 02:13:00,31.5,28.9,29.15,NE,42,3.6,3.6,90,0.00,,,0.00,VWS V14.01,2013-01-17 07:13:00,
2013-01-17 02:17:00,31.5,28.9,29.15,NE,41,5.4,5.4,90,0.00,,,0.00,VWS V14.01,2013-01-17 07:17:00,
2013-01-17 02:18:00,31.5,28.9,29.15,NE,41,5.4,5.4,90,0.00,,,0.00,VWS V14.01,2013-01-17 07:18:00,
2013-01-17 02:22:00,31.8,29.0,29.15,NNE,33,4.9,4.9,89,0.00,,,0.00,VWS V14.01,2013-01-17 07:22:00,
2013-01-17 02:23:00,31.8,29.0,29.15,NE,35,2.7,4.9,89,0.00,,,0.00,VWS V14.01,2013-01-17 07:23:00,
2013-01-17 02:27:00,32.0,29.1,29.18,NE,35,3.1,4.0,89,0.00,,,0.00,VWS V14.01,2013-01-17 07:27:00,
2013-01-17 02:28:00,32.0,29.1,29.18,NE,35,2.2,3.1,89,0.00,,,0.00,VWS V14.01,2013-01-17 07:28:00,
2013-01-17 02:32:00,32.0,29.1,29.18,NE,35,2.7,2.7,89,0.00,,,0.00,VWS V14.01,2013-01-17 07:32:00,
2013-01-17 02:33:00,32.0,29.1,29.18,NE,35,2.7,2.7,89,0.00,,,0.00,VWS V14.01,2013-01-17 07:33:00,
2013-01-17 02:37:00,32.0,29.1,29.18,NE,40,0.0,0.0,89,0.00,,,0.00,VWS V14.01,2013-01-17 07:37:00,
2013-01-17 02:38:00,32.0,29.1,29.18,NE,40,0.0,0.0,89,0.00,,,0.00,VWS V14.01,2013-01-17 07:38:00,
2013-01-17 02:42:00,32.2,29.3,29.18,NE,40,0.0,0.0,89,0.00,,,0.00,VWS V14.01,2013-01-17 07:42:00,
2013-01-17 02:43:00,32.2,29.3,29.18,NE,40,0.0,0.0,89,0.00,,,0.00,VWS V14.01,2013-01-17 07:43:00,
2013-01-17 02:47:00,32.2,29.3,29.18,NE,40,0.0,0.0,89,0.00,,,0.00,VWS V14.01,2013-01-17 07:47:00,
2013-01-17 02:48:00,32.2,29.3,29.18,NE,40,0.0,0.0,89,0.00,,,0.00,VWS V14.01,2013-01-17 07:48:00,
2013-01-17 02:49:00,32.2,29.3,29.18,NE,40,0.0,0.0,89,0.00,,,0.00,VWS V14.01,2013-01-17 07:49:00,
2013-01-17 02:52:00,32.2,29.3,29.18,NE,40,0.0,0.0,89,0.00,,,0.00,VWS V14.01,2013-01-17 07:52:00,
2013-01-17 02:53:00,32.2,29.3,29.18,NE,40,0.0,0.0,89,0.00,,,0.00,VWS V14.01,2013-01-17 07:53:00,
2013-01-17 02:54:00,32.2,29.3,29.18,NE,40,0.0,0.0,89,0.00,,,0.00,VWS V14.01,2013-01-17 07:54:00,
2013-01-17 02:57:00,32.2,29.3,29.18,NE,40,0.0,0.0,89,0.00,,,0.00,VWS V14.01,2013-01-17 07:57:00,
2013-01-17 02:58:00,32.2,29.3,29.18,NE,40,0.0,0.0,89,0.00,,,0.00,VWS V14.01,2013-01-17 07:58:00,
2013-01-17 02:59:00,32.2,29.3,29.18,NE,40,0.0,0.0,89,0.00,,,0.00,VWS V14.01,2013-01-17 07:59:00,
2013-01-17 03:03:00,32.2,29.3,29.18,NE,40,2.7,2.7,89,0.00,,,0.00,VWS V14.01,2013-01-17 08:03:00,
2013-01-17 03:04:00,32.2,29.3,29.18,NE,40,2.7,2.7,89,0.00,,,0.00,VWS V14.01,2013-01-17 08:04:00,
2013-01-17 03:08:00,32.2,29.3,29.18,NE,40,2.2,2.2,89,0.00,,,0.00,VWS V14.01,2013-01-17 08:08:00,
2013-01-17 03:09:00,32.2,29.3,29.18,NE,40,2.7,2.7,89,0.00,,,0.00,VWS V14.01,2013-01-17 08:09:00,
2013-01-17 03:13:00,32.2,29.3,29.18,NE,40,2.2,2.2,89,0.00,,,0.00,VWS V14.01,2013-01-17 08:13:00,
2013-01-17 03:14:00,32.2,29.3,29.18,NE,40,2.2,2.2,89,0.00,,,0.00,VWS V14.01,2013-01-17 08:14:00,
2013-01-17 03:18:00,32.2,29.3,29.18,NE,40,0.0,0.0,89,0.00,,,0.00,VWS V14.01,2013-01-17 08:18:00,
2013-01-17 03:19:00,32.2,29.3,29.18,NE,40,0.0,0.0,89,0.00,,,0.00,VWS V14.01,2013-01-17 08:19:00,
2013-01-17 03:23:00,32.2,29.3,29.18,NE,40,0.0,0.0,89,0.00,,,0.00,VWS V14.01,2013-01-17 08:23:00,
2013-01-17 03:24:00,32.2,29.3,29.18,NE,40,0.0,0.0,89,0.00,,,0.00,VWS V14.01,2013-01-17 08:24:00,
2013-01-17 03:28:00,32.2,29.3,29.18,NE,40,0.0,0.0,89,0.00,,,0.00,VWS V14.01,2013-01-17 08:28:00,
2013-01-17 03:29:00,32.2,29.3,29.18,NE,40,0.0,0.0,89,0.00,,,0.00,VWS V14.01,2013-01-17 08:29:00,
2013-01-17 03:33:00,31.6,28.5,29.18,NE,40,0.0,0.0,88,0.00,,,0.00,VWS V14.01,2013-01-17 08:33:00,
2013-01-17 03:34:00,31.6,28.5,29.18,NE,40,0.0,0.0,88,0.00,,,0.00,VWS V14.01,2013-01-17 08:34:00,
2013-01-17 03:38:00,31.3,28.4,29.21,NE,40,0.0,0.0,89,0.00,,,0.00,VWS V14.01,2013-01-17 08:38:00,
2013-01-17 03:39:00,31.3,28.4,29.21,NE,40,0.0,0.0,89,0.00,,,0.00,VWS V14.01,2013-01-17 08:39:00,
2013-01-17 03:44:00,31.3,28.4,29.21,NE,40,2.7,2.7,89,0.00,,,0.00,VWS V14.01,2013-01-17 08:44:00,
2013-01-17 03:49:00,31.3,28.4,29.21,NE,40,2.2,2.2,89,0.00,,,0.00,VWS V14.01,2013-01-17 08:49:00,
2013-01-17 03:50:00,31.3,28.4,29.21,NE,40,2.2,2.2,89,0.00,,,0.00,VWS V14.01,2013-01-17 08:50:00,
2013-01-17 03:54:00,31.3,28.4,29.21,NE,40,0.0,0.0,89,0.00,,,0.00,VWS V14.01,2013-01-17 08:54:00,
2013-01-17 03:55:00,31.3,28.4,29.21,NE,40,0.0,0.0,89,0.00,,,0.00,VWS V14.01,2013-01-17 08:55:00,
2013-01-17 03:59:00,30.9,28.1,29.21,NE,40,0.0,0.0,89,0.00,,,0.00,VWS V14.01,2013-01-17 08:59:00,
2013-01-17 04:00:00,30.9,28.1,29.21,NE,40,0.0,0.0,89,0.00,,,0.00,VWS V14.01,2013-01-17 09:00:00,
2013-01-17 04:04:00,30.4,27.5,29.21,NE,40,0.0,0.0,89,0.00,,,0.00,VWS V14.01,2013-01-17 09:04:00,
2013-01-17 04:05:00,30.4,27.5,29.21,NE,40,0.0,0.0,89,0.00,,,0.00,VWS V14.01,2013-01-17 09:05:00,
2013-01-17 04:09:00,30.2,27.4,29.21,NE,40,2.7,2.7,89,0.00,,,0.00,VWS V14.01,2013-01-17 09:09:00,
2013-01-17 04:10:00,30.2,27.4,29.21,NE,40,2.7,2.7,89,0.00,,,0.00,VWS V14.01,2013-01-17 09:10:00,
2013-01-17 04:14:00,30.2,27.4,29.21,NE,40,2.7,2.7,89,0.00,,,0.00,VWS V14.01,2013-01-17 09:14:00,
2013-01-17 04:15:00,30.2,27.4,29.21,NE,40,2.7,2.7,89,0.00,,,0.00,VWS V14.01,2013-01-17 09:15:00,
2013-01-17 04:19:00,30.2,27.4,29.21,NE,40,2.7,2.7,89,0.00,,,0.00,VWS V14.01,2013-01-17 09:19:00,
2013-01-17 04:20:00,30.2,27.4,29.21,NE,40,2.7,2.7,89,0.00,,,0.00,VWS V14.01,2013-01-17 09:20:00,
2013-01-17 04:24:00,30.4,27.8,29.21,NE,40,3.1,3.1,90,0.00,,,0.00,VWS V14.01,2013-01-17 09:24:00,
2013-01-17 04:25:00,30.4,27.8,29.21,NE,40,4.0,4.0,90,0.00,,,0.00,VWS V14.01,2013-01-17 09:25:00,
2013-01-17 04:29:00,30.4,27.8,29.21,NE,40,2.7,2.7,90,0.00,,,0.00,VWS V14.01,2013-01-17 09:29:00,
2013-01-17 04:30:00,30.6,28.0,29.21,NE,40,2.7,2.7,90,0.00,,,0.00,VWS V14.01,2013-01-17 09:30:00,
2013-01-17 04:34:00,30.6,28.0,29.21,NE,40,0.0,0.0,90,0.00,,,0.00,VWS V14.01,2013-01-17 09:34:00,
2013-01-17 04:35:00,30.6,28.0,29.21,NE,40,0.0,0.0,90,0.00,,,0.00,VWS V14.01,2013-01-17 09:35:00,
2013-01-17 04:39:00,30.6,28.0,29.21,NE,40,0.0,0.0,90,0.00,,,0.00,VWS V14.01,2013-01-17 09:39:00,
2013-01-17 04:40:00,30.6,28.0,29.21,NE,40,0.0,0.0,90,0.00,,,0.00,VWS V14.01,2013-01-17 09:40:00,
2013-01-17 04:45:00,30.6,28.0,29.21,NE,40,2.7,2.7,90,0.00,,,0.00,VWS V14.01,2013-01-17 09:45:00,
2013-01-17 04:46:00,30.6,28.0,29.21,NE,40,2.7,2.7,90,0.00,,,0.00,VWS V14.01,2013-01-17 09:46:00,
2013-01-17 04:50:00,30.4,28.1,29.21,NE,40,3.6,3.6,91,0.00,,,0.00,VWS V14.01,2013-01-17 09:50:00,
2013-01-17 04:51:00,30.4,28.1,29.21,NE,40,3.6,3.6,91,0.00,,,0.00,VWS V14.01,2013-01-17 09:51:00,
2013-01-17 04:55:00,30.4,28.1,29.21,NE,40,3.6,3.6,91,0.00,,,0.00,VWS V14.01,2013-01-17 09:55:00,
2013-01-17 04:56:00,30.6,28.5,29.21,NE,40,3.6,3.6,92,0.00,,,0.00,VWS V14.01,2013-01-17 09:56:00,
2013-01-17 05:00:00,30.6,28.5,29.21,NE,40,0.0,0.0,92,0.00,,,0.00,VWS V14.01,2013-01-17 10:00:00,
2013-01-17 05:01:00,30.6,28.5,29.21,NE,40,0.0,0.0,92,0.00,,,0.00,VWS V14.01,2013-01-17 10:01:00,
2013-01-17 05:05:00,30.6,28.5,29.21,NE,40,0.0,0.0,92,0.00,,,0.00,VWS V14.01,2013-01-17 10:05:00,
2013-01-17 05:06:00,30.4,28.3,29.21,NE,40,0.0,0.0,92,0.00,,,0.00,VWS V14.01,2013-01-17 10:06:00,
2013-01-17 05:10:00,30.4,28.3,29.21,NE,40,0.0,0.0,92,0.00,,,0.00,VWS V14.01,2013-01-17 10:10:00,
2013-01-17 05:11:00,30.2,28.4,29.21,NE,40,0.0,0.0,93,0.00,,,0.00,VWS V14.01,2013-01-17 10:11:00,
2013-01-17 05:15:00,30.4,28.6,29.21,NE,40,0.0,0.0,93,0.00,,,0.00,VWS V14.01,2013-01-17 10:15:00,
2013-01-17 05:16:00,30.4,28.6,29.21,NE,40,2.7,2.7,93,0.00,,,0.00,VWS V14.01,2013-01-17 10:16:00,
2013-01-17 05:20:00,30.4,28.6,29.21,NE,40,2.7,2.7,93,0.00,,,0.00,VWS V14.01,2013-01-17 10:20:00,
2013-01-17 05:21:00,30.4,28.6,29.18,NE,50,3.6,3.6,93,0.00,,,0.00,VWS V14.01,2013-01-17 10:21:00,
2013-01-17 05:25:00,30.7,29.2,29.18,North,3,3.6,3.6,94,0.00,,,0.00,VWS V14.01,2013-01-17 10:25:00,
2013-01-17 05:26:00,30.7,29.2,29.18,NE,43,3.1,3.6,94,0.00,,,0.00,VWS V14.01,2013-01-17 10:26:00,
2013-01-17 05:30:00,30.7,29.2,29.18,NNE,29,4.9,4.9,94,0.00,,,0.00,VWS V14.01,2013-01-17 10:30:00,
2013-01-17 05:31:00,30.7,29.2,29.18,NNE,29,4.9,4.9,94,0.00,,,0.00,VWS V14.01,2013-01-17 10:31:00,
2013-01-17 05:35:00,30.7,29.0,29.21,NE,51,3.6,3.6,93,0.00,,,0.00,VWS V14.01,2013-01-17 10:35:00,
2013-01-17 05:36:00,30.7,29.0,29.21,NE,51,3.6,3.6,93,0.00,,,0.00,VWS V14.01,2013-01-17 10:36:00,
2013-01-17 05:40:00,30.7,29.0,29.21,NE,51,3.6,3.6,93,0.00,,,0.00,VWS V14.01,2013-01-17 10:40:00,
2013-01-17 05:41:00,30.7,29.0,29.21,NE,51,3.6,3.6,93,0.00,,,0.00,VWS V14.01,2013-01-17 10:41:00,
2013-01-17 05:42:00,30.7,29.0,29.21,NE,51,3.6,3.6,93,0.00,,,0.00,VWS V14.01,2013-01-17 10:42:00,
2013-01-17 05:45:00,30.7,29.0,29.21,ENE,61,3.6,3.6,93,0.00,,,0.00,VWS V14.01,2013-01-17 10:45:00,
2013-01-17 05:47:00,30.7,29.0,29.21,ENE,61,3.6,3.6,93,0.00,,,0.00,VWS V14.01,2013-01-17 10:47:00,
2013-01-17 05:50:00,30.7,28.7,29.21,ENE,61,3.6,3.6,92,0.00,,,0.00,VWS V14.01,2013-01-17 10:50:00,
2013-01-17 05:52:00,30.7,28.7,29.21,NE,53,2.7,2.7,92,0.00,,,0.00,VWS V14.01,2013-01-17 10:52:00,
2013-01-17 05:55:00,30.6,28.5,29.21,NE,53,6.3,6.3,92,0.00,,,0.00,VWS V14.01,2013-01-17 10:55:00,
2013-01-17 05:56:00,30.6,28.5,29.21,NE,53,6.3,6.3,92,0.00,,,0.00,VWS V14.01,2013-01-17 10:56:00,
2013-01-17 05:57:00,30.6,28.5,29.21,NE,53,6.3,6.3,92,0.00,,,0.00,VWS V14.01,2013-01-17 10:57:00,
2013-01-17 06:00:00,30.6,28.5,29.21,NE,53,6.3,6.3,92,0.00,,,0.00,VWS V14.01,2013-01-17 11:00:00,
2013-01-17 06:01:00,30.6,28.5,29.21,NE,53,6.3,6.3,92,0.00,,,0.00,VWS V14.01,2013-01-17 11:01:00,
2013-01-17 06:02:00,30.6,28.5,29.21,ENE,60,4.9,4.9,92,0.00,,,0.00,VWS V14.01,2013-01-17 11:02:00,
2013-01-17 06:05:00,30.6,28.5,29.21,ENE,60,5.8,5.8,92,0.00,,,0.00,VWS V14.01,2013-01-17 11:05:00,
2013-01-17 06:06:00,30.6,28.5,29.21,ENE,60,5.8,5.8,92,0.00,,,0.00,VWS V14.01,2013-01-17 11:06:00,
2013-01-17 06:07:00,30.6,28.5,29.21,ENE,69,5.4,5.8,92,0.00,,,0.00,VWS V14.01,2013-01-17 11:07:00,
2013-01-17 06:10:00,30.6,28.5,29.21,ENE,69,5.4,5.4,92,0.00,,,0.00,VWS V14.01,2013-01-17 11:10:00,
2013-01-17 06:11:00,30.6,28.5,29.21,ENE,69,5.4,5.4,92,0.00,,,0.00,VWS V14.01,2013-01-17 11:11:00,
2013-01-17 06:12:00,30.6,28.5,29.21,ENE,69,5.4,5.4,92,0.00,,,0.00,VWS V14.01,2013-01-17 11:12:00,
2013-01-17 06:16:00,30.6,28.8,29.21,ENE,69,5.4,5.4,93,0.00,,,0.00,VWS V14.01,2013-01-17 11:16:00,
2013-01-17 06:17:00,30.6,28.8,29.21,NE,52,5.8,5.8,93,0.00,,,0.00,VWS V14.01,2013-01-17 11:17:00,
2013-01-17 06:21:00,30.6,28.8,29.21,ENE,70,5.4,5.4,93,0.00,,,0.00,VWS V14.01,2013-01-17 11:21:00,
2013-01-17 06:22:00,30.6,28.8,29.21,ENE,70,5.4,5.4,93,0.00,,,0.00,VWS V14.01,2013-01-17 11:22:00,
2013-01-17 06:23:00,30.6,28.8,29.21,ENE,70,5.4,5.4,93,0.00,,,0.00,VWS V14.01,2013-01-17 11:23:00,
2013-01-17 06:26:00,30.6,28.8,29.21,ENE,61,5.8,5.8,93,0.00,,,0.00,VWS V14.01,2013-01-17 11:26:00,
2013-01-17 06:28:00,30.6,28.8,29.21,ENE,76,4.9,4.9,93,0.00,,,0.00,VWS V14.01,2013-01-17 11:28:00,
2013-01-17 06:31:00,30.7,29.0,29.21,ENE,76,4.9,4.9,93,0.00,,,0.00,VWS V14.01,2013-01-17 11:31:00,
2013-01-17 06:33:00,30.7,29.0,29.21,ENE,76,4.9,4.9,93,0.00,,,0.00,VWS V14.01,2013-01-17 11:33:00,
2013-01-17 06:36:00,30.7,29.0,29.21,ENE,76,4.9,4.9,93,0.00,,,0.00,VWS V14.01,2013-01-17 11:36:00,
2013-01-17 06:37:00,30.7,29.0,29.21,ENE,76,4.9,4.9,93,0.00,,,0.00,VWS V14.01,2013-01-17 11:37:00,
2013-01-17 06:38:00,30.7,29.0,29.21,East,96,9.2,9.2,93,0.00,,,0.00,VWS V14.01,2013-01-17 11:38:00,
2013-01-17 06:41:00,30.6,28.8,29.23,East,82,5.4,5.4,93,0.00,,,0.00,VWS V14.01,2013-01-17 11:41:00,
2013-01-17 06:42:00,30.6,28.8,29.23,East,82,5.4,5.4,93,0.00,,,0.00,VWS V14.01,2013-01-17 11:42:00,
2013-01-17 06:43:00,30.6,28.8,29.23,East,82,5.4,5.4,93,0.00,,,0.00,VWS V14.01,2013-01-17 11:43:00,
2013-01-17 06:46:00,30.6,28.8,29.23,ENE,65,8.1,8.1,93,0.00,,,0.00,VWS V14.01,2013-01-17 11:46:00,
2013-01-17 06:47:00,30.6,28.8,29.23,ENE,65,8.1,8.1,93,0.00,,,0.00,VWS V14.01,2013-01-17 11:47:00,
2013-01-17 06:48:00,30.6,28.8,29.23,ENE,65,8.1,8.1,93,0.00,,,0.00,VWS V14.01,2013-01-17 11:48:00,
2013-01-17 06:51:00,30.6,28.8,29.23,ENE,65,7.2,7.2,93,0.00,,,0.00,VWS V14.01,2013-01-17 11:51:00,
2013-01-17 06:52:00,30.6,28.8,29.23,ENE,65,7.2,7.2,93,0.00,,,0.00,VWS V14.01,2013-01-17 11:52:00,
2013-01-17 06:53:00,30.6,28.8,29.23,ENE,77,6.7,6.7,93,0.00,,,0.00,VWS V14.01,2013-01-17 11:53:00,
2013-01-17 06:56:00,30.6,29.3,29.23,ENE,77,6.7,6.7,95,0.00,,,0.00,VWS V14.01,2013-01-17 11:56:00,
2013-01-17 06:57:00,30.6,29.3,29.23,ENE,77,6.7,6.7,95,0.00,,,0.00,VWS V14.01,2013-01-17 11:57:00,
2013-01-17 06:58:00,30.6,29.3,29.23,ENE,77,6.7,6.7,95,0.00,,,0.00,VWS V14.01,2013-01-17 11:58:00,
2013-01-17 07:01:00,30.6,29.6,29.23,East,81,8.3,8.3,96,0.00,,,0.00,VWS V14.01,2013-01-17 12:01:00,
2013-01-17 07:02:00,30.6,29.6,29.23,East,81,8.3,8.3,96,0.00,,,0.00,VWS V14.01,2013-01-17 12:02:00,
2013-01-17 07:04:00,30.6,29.6,29.23,East,81,8.3,8.3,96,0.00,,,0.00,VWS V14.01,2013-01-17 12:04:00,
2013-01-17 07:06:00,30.6,29.6,29.23,ENE,75,6.3,8.3,96,0.00,,,0.00,VWS V14.01,2013-01-17 12:06:00,
2013-01-17 07:07:00,30.6,29.6,29.23,ENE,75,6.3,8.3,96,0.00,,,0.00,VWS V14.01,2013-01-17 12:07:00,
2013-01-17 07:09:00,30.6,29.6,29.23,NNE,30,4.5,4.5,96,0.00,,,0.00,VWS V14.01,2013-01-17 12:09:00,
2013-01-17 07:11:00,30.6,29.6,29.23,ENE,72,5.4,5.4,96,0.00,,,0.00,VWS V14.01,2013-01-17 12:11:00,
2013-01-17 07:12:00,30.6,29.6,29.23,ENE,72,5.4,5.4,96,0.00,,,0.00,VWS V14.01,2013-01-17 12:12:00,
2013-01-17 07:14:00,30.6,29.6,29.23,ENE,63,4.0,4.0,96,0.00,,,0.00,VWS V14.01,2013-01-17 12:14:00,
2013-01-17 07:17:00,30.6,29.6,29.23,ENE,73,8.1,8.1,96,0.00,,,0.00,VWS V14.01,2013-01-17 12:17:00,
2013-01-17 07:19:00,30.6,29.6,29.23,NE,55,5.8,7.6,96,0.00,,,0.00,VWS V14.01,2013-01-17 12:19:00,
2013-01-17 07:22:00,30.6,29.6,29.23,ENE,71,5.8,5.8,96,0.00,,,0.00,VWS V14.01,2013-01-17 12:22:00,
2013-01-17 07:24:00,30.7,29.7,29.23,ENE,71,5.8,5.8,96,0.00,,,0.00,VWS V14.01,2013-01-17 12:24:00,
2013-01-17 07:27:00,30.7,29.7,29.23,ENE,71,5.8,5.8,96,0.00,,,0.00,VWS V14.01,2013-01-17 12:27:00,
2013-01-17 07:29:00,30.7,29.7,29.23,ENE,71,5.8,5.8,96,0.00,,,0.00,VWS V14.01,2013-01-17 12:29:00,
2013-01-17 07:32:00,30.9,29.7,29.23,NE,53,6.3,6.3,95,0.00,,,0.00,VWS V14.01,2013-01-17 12:32:00,
2013-01-17 07:34:00,30.9,29.7,29.23,NE,54,7.6,7.6,95,0.00,,,0.00,VWS V14.01,2013-01-17 12:34:00,
2013-01-17 07:37:00,30.9,29.7,29.23,East,82,4.0,4.0,95,0.00,,,0.00,VWS V14.01,2013-01-17 12:37:00,
2013-01-17 07:39:00,30.9,29.7,29.23,East,82,4.0,4.0,95,0.00,,,0.00,VWS V14.01,2013-01-17 12:39:00,
2013-01-17 07:42:00,30.9,29.7,29.23,East,82,4.0,4.0,95,0.00,,,0.00,VWS V14.01,2013-01-17 12:42:00,
2013-01-17 07:44:00,30.9,29.7,29.23,ENE,69,5.4,5.4,95,0.00,,,0.00,VWS V14.01,2013-01-17 12:44:00,
2013-01-17 07:47:00,30.9,29.7,29.23,ENE,70,3.6,5.4,95,0.00,,,0.00,VWS V14.01,2013-01-17 12:47:00,
2013-01-17 07:49:00,30.9,29.7,29.23,ENE,70,5.4,5.4,95,0.00,,,0.00,VWS V14.01,2013-01-17 12:49:00,
2013-01-17 07:52:00,30.9,29.7,29.26,ENE,70,5.4,5.4,95,0.00,,,0.00,VWS V14.01,2013-01-17 12:52:00,
2013-01-17 07:55:00,30.9,29.7,29.26,ENE,68,5.8,5.8,95,0.00,,,0.00,VWS V14.01,2013-01-17 12:55:00,
2013-01-17 07:57:00,31.1,29.0,29.26,ENE,68,5.8,5.8,92,0.00,,,0.00,VWS V14.01,2013-01-17 12:57:00,
2013-01-17 08:00:00,31.1,29.0,29.26,ENE,68,6.3,6.3,92,0.00,,,0.00,VWS V14.01,2013-01-17 13:00:00,
2013-01-17 08:02:00,31.1,29.0,29.26,ENE,57,4.0,4.0,92,0.00,,,0.00,VWS V14.01,2013-01-17 13:02:00,
2013-01-17 08:03:00,31.1,29.0,29.26,ENE,57,4.0,4.0,92,0.00,,,0.00,VWS V14.01,2013-01-17 13:03:00,
2013-01-17 08:05:00,31.1,29.0,29.26,ENE,57,4.0,4.0,92,0.00,,,0.00,VWS V14.01,2013-01-17 13:05:00,
2013-01-17 08:07:00,31.1,29.0,29.26,East,79,5.4,6.3,92,0.00,,,0.00,VWS V14.01,2013-01-17 13:07:00,
2013-01-17 08:08:00,31.1,29.0,29.26,East,79,5.4,6.3,92,0.00,,,0.00,VWS V14.01,2013-01-17 13:08:00,
2013-01-17 08:10:00,31.1,29.0,29.26,ENE,66,7.6,7.6,92,0.00,,,0.00,VWS V14.01,2013-01-17 13:10:00,
2013-01-17 08:13:00,31.1,29.0,29.26,NE,52,5.4,5.4,92,0.00,,,0.00,VWS V14.01,2013-01-17 13:13:00,
2013-01-17 08:15:00,31.1,29.0,29.26,East,100,6.3,6.3,92,0.00,,,0.00,VWS V14.01,2013-01-17 13:15:00,
2013-01-17 08:18:00,31.1,29.0,29.26,ENE,76,5.8,5.8,92,0.00,,,0.00,VWS V14.01,2013-01-17 13:18:00,
2013-01-17 08:20:00,31.1,29.0,29.26,East,86,6.3,6.3,92,0.00,,,0.00,VWS V14.01,2013-01-17 13:20:00,
2013-01-17 08:23:00,31.1,28.2,29.26,NE,56,6.3,6.3,89,0.00,,,0.00,VWS V14.01,2013-01-17 13:23:00,
2013-01-17 08:25:00,31.1,28.2,29.26,ENE,58,7.6,7.6,89,0.00,,,0.00,VWS V14.01,2013-01-17 13:25:00,
2013-01-17 08:28:00,31.1,28.2,29.26,East,93,8.3,8.3,89,0.00,,,0.00,VWS V14.01,2013-01-17 13:28:00,
2013-01-17 08:30:00,31.1,28.2,29.26,East,93,8.3,8.3,89,0.00,,,0.00,VWS V14.01,2013-01-17 13:30:00,
2013-01-17 08:33:00,31.1,28.2,29.26,East,93,8.3,8.3,89,0.00,,,0.00,VWS V14.01,2013-01-17 13:33:00,
2013-01-17 08:35:00,31.1,28.2,29.26,ENE,67,8.1,8.1,89,0.00,,,0.00,VWS V14.01,2013-01-17 13:35:00,
2013-01-17 08:38:00,31.1,28.2,29.26,ENE,63,6.3,6.3,89,0.00,,,0.00,VWS V14.01,2013-01-17 13:38:00,
2013-01-17 08:40:00,31.1,28.2,29.26,ENE,64,7.6,8.1,89,0.00,,,0.00,VWS V14.01,2013-01-17 13:40:00,
2013-01-17 08:41:00,31.1,28.2,29.26,ENE,64,7.6,8.1,89,0.00,,,0.00,VWS V14.01,2013-01-17 13:41:00,
2013-01-17 08:43:00,31.1,28.0,29.26,ENE,64,7.6,7.6,88,0.00,,,0.00,VWS V14.01,2013-01-17 13:43:00,
2013-01-17 08:44:00,31.1,28.0,29.26,ENE,64,7.6,7.6,88,0.00,,,0.00,VWS V14.01,2013-01-17 13:44:00,
2013-01-17 08:46:00,31.1,28.0,29.26,ENE,64,6.3,6.3,88,0.00,,,0.00,VWS V14.01,2013-01-17 13:46:00,
2013-01-17 08:48:00,30.9,27.5,29.26,ENE,64,6.3,6.3,87,0.00,,,0.00,VWS V14.01,2013-01-17 13:48:00,
2013-01-17 08:49:00,30.9,27.5,29.26,ENE,70,4.9,6.3,87,0.00,,,0.00,VWS V14.01,2013-01-17 13:49:00,
2013-01-17 08:51:00,30.9,27.5,29.26,NE,53,8.1,8.1,87,0.00,,,0.00,VWS V14.01,2013-01-17 13:51:00,
2013-01-17 08:53:00,30.9,27.5,29.26,ENE,71,5.8,5.8,87,0.00,,,0.00,VWS V14.01,2013-01-17 13:53:00,
2013-01-17 08:54:00,30.9,27.5,29.26,ENE,66,5.4,5.8,87,0.00,,,0.00,VWS V14.01,2013-01-17 13:54:00,
2013-01-17 08:56:00,30.9,27.5,29.26,ENE,66,5.4,5.4,87,0.00,,,0.00,VWS V14.01,2013-01-17 13:56:00,
2013-01-17 08:58:00,30.9,27.5,29.26,ENE,66,5.4,5.4,87,0.00,,,0.00,VWS V14.01,2013-01-17 13:58:00,
2013-01-17 08:59:00,30.9,27.5,29.26,ENE,66,5.4,5.4,87,0.00,,,0.00,VWS V14.01,2013-01-17 13:59:00,
2013-01-17 09:01:00,30.9,27.5,29.26,East,91,4.0,5.4,87,0.00,,,0.00,VWS V14.01,2013-01-17 14:01:00,
2013-01-17 09:03:00,30.9,27.5,29.26,ENE,62,6.3,6.3,87,0.00,,,0.00,VWS V14.01,2013-01-17 14:03:00,
2013-01-17 09:04:00,30.9,27.5,29.26,ENE,62,6.3,6.3,87,0.00,,,0.00,VWS V14.01,2013-01-17 14:04:00,
2013-01-17 09:06:00,30.9,27.5,29.26,ENE,62,3.6,6.3,87,0.00,,,0.00,VWS V14.01,2013-01-17 14:06:00,
2013-01-17 09:08:00,30.9,27.5,29.26,ENE,62,3.6,3.6,87,0.00,,,0.00,VWS V14.01,2013-01-17 14:08:00,
2013-01-17 09:09:00,30.9,27.5,29.26,ENE,62,3.6,3.6,87,0.00,,,0.00,VWS V14.01,2013-01-17 14:09:00,
2013-01-17 09:11:00,30.9,27.5,29.26,NE,55,10.1,10.1,87,0.00,,,0.00,VWS V14.01,2013-01-17 14:11:00,
2013-01-17 09:14:00,31.1,27.4,29.26,NE,55,10.1,10.1,86,0.00,,,0.00,VWS V14.01,2013-01-17 14:14:00,
2013-01-17 09:16:00,31.1,27.4,29.26,NE,51,5.8,10.1,86,0.00,,,0.00,VWS V14.01,2013-01-17 14:16:00,
2013-01-17 09:19:00,31.1,27.4,29.26,East,98,3.6,3.6,86,0.00,,,0.00,VWS V14.01,2013-01-17 14:19:00,
2013-01-17 09:21:00,31.1,27.4,29.26,East,82,5.8,5.8,86,0.00,,,0.00,VWS V14.01,2013-01-17 14:21:00,
2013-01-17 09:24:00,31.1,27.1,29.26,ENE,77,8.3,8.3,85,0.00,,,0.00,VWS V14.01,2013-01-17 14:24:00,
2013-01-17 09:26:00,31.3,27.0,29.29,ENE,61,7.2,7.2,84,0.00,,,0.00,VWS V14.01,2013-01-17 14:26:00,
2013-01-17 09:29:00,31.5,26.9,29.29,ENE,77,5.8,5.8,83,0.00,,,0.00,VWS V14.01,2013-01-17 14:29:00,
2013-01-17 09:31:00,31.5,26.9,29.29,ENE,77,5.8,5.8,83,0.00,,,0.00,VWS V14.01,2013-01-17 14:31:00,
2013-01-17 09:32:00,31.5,26.9,29.29,ENE,77,5.8,5.8,83,0.00,,,0.00,VWS V14.01,2013-01-17 14:32:00,
2013-01-17 09:34:00,31.5,26.9,29.29,East,85,7.6,7.6,83,0.00,,,0.00,VWS V14.01,2013-01-17 14:34:00,
2013-01-17 09:36:00,31.5,26.9,29.29,East,85,7.6,7.6,83,0.00,,,0.00,VWS V14.01,2013-01-17 14:36:00,
2013-01-17 09:37:00,31.5,26.9,29.29,East,87,8.1,8.1,83,0.00,,,0.00,VWS V14.01,2013-01-17 14:37:00,
2013-01-17 09:39:00,31.8,27.0,29.29,East,87,8.1,8.1,82,0.00,,,0.00,VWS V14.01,2013-01-17 14:39:00,
2013-01-17 09:40:00,31.8,27.0,29.29,East,87,8.1,8.1,82,0.00,,,0.00,VWS V14.01,2013-01-17 14:40:00,
2013-01-17 09:42:00,31.8,27.0,29.29,East,87,8.1,8.1,82,0.00,,,0.00,VWS V14.01,2013-01-17 14:42:00,
2013-01-17 09:44:00,31.8,27.0,29.29,NE,46,7.6,7.6,82,0.00,,,0.00,VWS V14.01,2013-01-17 14:44:00,
2013-01-17 09:45:00,31.8,27.0,29.29,NE,46,7.6,7.6,82,0.00,,,0.00,VWS V14.01,2013-01-17 14:45:00,
2013-01-17 09:47:00,31.8,27.0,29.29,ENE,58,7.6,7.6,82,0.00,,,0.00,VWS V14.01,2013-01-17 14:47:00,
2013-01-17 09:49:00,32.2,27.0,29.29,ENE,58,7.6,7.6,81,0.00,,,0.00,VWS V14.01,2013-01-17 14:49:00,
2013-01-17 09:50:00,32.2,27.0,29.29,ENE,58,7.6,7.6,81,0.00,,,0.00,VWS V14.01,2013-01-17 14:50:00,
2013-01-17 09:52:00,32.4,27.2,29.29,ENE,58,7.6,7.6,81,0.00,,,0.00,VWS V14.01,2013-01-17 14:52:00,
2013-01-17 09:54:00,32.4,27.2,29.29,ENE,66,5.8,10.1,81,0.00,,,0.00,VWS V14.01,2013-01-17 14:54:00,
2013-01-17 09:55:00,32.4,27.2,29.29,ENE,62,5.4,5.8,81,0.00,,,0.00,VWS V14.01,2013-01-17 14:55:00,
2013-01-17 09:57:00,32.5,27.4,29.29,East,81,7.6,7.6,81,0.00,,,0.00,VWS V14.01,2013-01-17 14:57:00,
2013-01-17 09:59:00,32.5,27.4,29.29,ENE,67,8.1,8.1,81,0.00,,,0.00,VWS V14.01,2013-01-17 14:59:00,
2013-01-17 10:00:00,32.5,27.4,29.29,ENE,67,8.1,8.1,81,0.00,,,0.00,VWS V14.01,2013-01-17 15:00:00,
2013-01-17 10:02:00,32.5,27.4,29.29,ENE,67,8.1,8.1,81,0.00,,,0.00,VWS V14.01,2013-01-17 15:02:00,
2013-01-17 10:04:00,32.5,27.4,29.29,ENE,68,6.3,6.3,81,0.00,,,0.00,VWS V14.01,2013-01-17 15:04:00,
2013-01-17 10:05:00,32.7,27.2,29.29,ENE,68,6.3,6.3,80,0.00,,,0.00,VWS V14.01,2013-01-17 15:05:00,
2013-01-17 10:07:00,32.7,27.2,29.29,ENE,70,4.9,4.9,80,0.00,,,0.00,VWS V14.01,2013-01-17 15:07:00,
2013-01-17 10:09:00,32.7,27.2,29.29,ENE,60,5.4,5.4,80,0.00,,,0.00,VWS V14.01,2013-01-17 15:09:00,
2013-01-17 10:10:00,32.7,27.2,29.29,ENE,60,5.4,5.4,80,0.00,,,0.00,VWS V14.01,2013-01-17 15:10:00,
2013-01-17 10:12:00,32.7,27.2,29.29,ENE,60,5.4,5.4,80,0.00,,,0.00,VWS V14.01,2013-01-17 15:12:00,
2013-01-17 10:13:00,32.7,27.2,29.29,ENE,72,8.1,8.1,80,0.00,,,0.00,VWS V14.01,2013-01-17 15:13:00,
2013-01-17 10:14:00,32.7,27.2,29.29,ENE,72,8.1,8.1,80,0.00,,,0.00,VWS V14.01,2013-01-17 15:14:00,
2013-01-17 10:15:00,32.9,27.1,29.29,ENE,72,8.1,8.1,79,0.00,,,0.00,VWS V14.01,2013-01-17 15:15:00,
2013-01-17 10:17:00,32.7,26.6,29.29,ENE,71,10.5,10.5,78,0.00,,,0.00,VWS V14.01,2013-01-17 15:17:00,
2013-01-17 10:18:00,32.7,26.6,29.29,ENE,71,10.5,10.5,78,0.00,,,0.00,VWS V14.01,2013-01-17 15:18:00,
2013-01-17 10:19:00,32.7,26.6,29.29,NE,38,8.7,8.7,78,0.00,,,0.00,VWS V14.01,2013-01-17 15:19:00,
2013-01-17 10:20:00,32.7,26.6,29.29,ENE,68,8.3,8.3,78,0.00,,,0.00,VWS V14.01,2013-01-17 15:20:00,
2013-01-17 10:22:00,32.9,26.8,29.29,ENE,68,8.3,8.3,78,0.00,,,0.00,VWS V14.01,2013-01-17 15:22:00,
2013-01-17 10:23:00,32.9,26.8,29.29,ENE,68,8.3,8.3,78,0.00,,,0.00,VWS V14.01,2013-01-17 15:23:00,
2013-01-17 10:24:00,32.9,26.8,29.29,ENE,68,8.3,8.3,78,0.00,,,0.00,VWS V14.01,2013-01-17 15:24:00,
2013-01-17 10:25:00,32.9,26.8,29.29,ENE,68,8.3,8.3,78,0.00,,,0.00,VWS V14.01,2013-01-17 15:25:00,
2013-01-17 10:28:00,32.9,26.8,29.29,ENE,58,12.8,12.8,78,0.00,,,0.00,VWS V14.01,2013-01-17 15:28:00,
2013-01-17 10:29:00,32.9,26.8,29.29,ENE,72,10.5,10.5,78,0.00,,,0.00,VWS V14.01,2013-01-17 15:29:00,
2013-01-17 10:31:00,33.1,27.0,29.29,ENE,67,10.5,10.5,78,0.00,,,0.00,VWS V14.01,2013-01-17 15:31:00,
2013-01-17 10:33:00,33.1,27.0,29.29,East,79,6.3,6.3,78,0.00,,,0.00,VWS V14.01,2013-01-17 15:33:00,
2013-01-17 10:34:00,33.1,27.0,29.29,East,79,6.3,6.3,78,0.00,,,0.00,VWS V14.01,2013-01-17 15:34:00,
2013-01-17 10:36:00,33.1,27.0,29.29,East,79,6.3,6.3,78,0.00,,,0.00,VWS V14.01,2013-01-17 15:36:00,
2013-01-17 10:38:00,33.1,27.0,29.29,East,79,6.3,6.3,78,0.00,,,0.00,VWS V14.01,2013-01-17 15:38:00,
2013-01-17 10:39:00,33.3,27.1,29.29,ENE,58,8.3,8.3,78,0.00,,,0.00,VWS V14.01,2013-01-17 15:39:00,
2013-01-17 10:41:00,33.3,27.1,29.29,ENE,58,8.3,8.3,78,0.00,,,0.00,VWS V14.01,2013-01-17 15:41:00,
2013-01-17 10:43:00,33.3,26.8,29.29,ENE,58,8.3,8.3,77,0.00,,,0.00,VWS V14.01,2013-01-17 15:43:00,
2013-01-17 10:44:00,33.3,26.8,29.29,ENE,75,4.9,8.3,77,0.00,,,0.00,VWS V14.01,2013-01-17 15:44:00,
2013-01-17 10:46:00,33.3,26.8,29.29,ENE,75,4.9,4.9,77,0.00,,,0.00,VWS V14.01,2013-01-17 15:46:00,
2013-01-17 10:48:00,33.4,27.0,29.29,East,84,8.7,8.7,77,0.00,,,0.00,VWS V14.01,2013-01-17 15:48:00,
2013-01-17 10:50:00,33.4,27.0,29.29,East,89,8.3,8.7,77,0.00,,,0.00,VWS V14.01,2013-01-17 15:50:00,
2013-01-17 10:51:00,33.4,27.0,29.29,East,89,8.3,8.3,77,0.00,,,0.00,VWS V14.01,2013-01-17 15:51:00,
2013-01-17 10:53:00,33.4,27.0,29.29,ENE,76,6.3,6.3,77,0.00,,,0.00,VWS V14.01,2013-01-17 15:53:00,
2013-01-17 10:55:00,33.6,27.2,29.29,ENE,64,9.2,9.2,77,0.00,,,0.00,VWS V14.01,2013-01-17 15:55:00,
2013-01-17 10:56:00,33.6,27.2,29.32,ENE,64,9.2,9.2,77,0.00,,,0.00,VWS V14.01,2013-01-17 15:56:00,
2013-01-17 10:58:00,33.8,27.4,29.32,ENE,64,9.2,9.2,77,0.00,,,0.00,VWS V14.01,2013-01-17 15:58:00,
2013-01-17 11:00:00,33.8,27.4,29.32,ENE,64,9.2,9.2,77,0.00,,,0.00,VWS V14.01,2013-01-17 16:00:00,
2013-01-17 11:01:00,33.8,27.4,29.32,ENE,60,8.3,9.2,77,0.00,,,0.00,VWS V14.01,2013-01-17 16:01:00,
2013-01-17 11:03:00,33.8,27.4,29.32,ENE,69,10.1,10.1,77,0.00,,,0.00,VWS V14.01,2013-01-17 16:03:00,
2013-01-17 11:04:00,33.8,27.4,29.32,ENE,69,10.1,10.1,77,0.00,,,0.00,VWS V14.01,2013-01-17 16:04:00,
2013-01-17 11:05:00,33.8,27.4,29.32,ENE,69,10.1,10.1,77,0.00,,,0.00,VWS V14.01,2013-01-17 16:05:00,
2013-01-17 11:06:00,33.8,27.4,29.32,East,84,7.6,13.2,77,0.00,,,0.00,VWS V14.01,2013-01-17 16:06:00,
2013-01-17 11:08:00,34.0,27.5,29.32,East,84,7.6,7.6,77,0.00,,,0.00,VWS V14.01,2013-01-17 16:08:00,
2013-01-17 11:09:00,34.0,27.5,29.32,East,84,7.6,7.6,77,0.00,,,0.00,VWS V14.01,2013-01-17 16:09:00,
2013-01-17 11:10:00,34.0,27.5,29.32,East,84,12.8,12.8,77,0.00,,,0.00,VWS V14.01,2013-01-17 16:10:00,
2013-01-17 11:11:00,34.0,27.5,29.32,East,84,12.8,12.8,77,0.00,,,0.00,VWS V14.01,2013-01-17 16:11:00,
2013-01-17 11:13:00,34.0,27.5,29.32,ENE,63,11.9,11.9,77,0.00,,,0.00,VWS V14.01,2013-01-17 16:13:00,
2013-01-17 11:14:00,34.0,27.5,29.32,ENE,63,11.9,11.9,77,0.00,,,0.00,VWS V14.01,2013-01-17 16:14:00,
2013-01-17 11:15:00,34.0,27.5,29.32,ENE,63,11.9,11.9,77,0.00,,,0.00,VWS V14.01,2013-01-17 16:15:00,
2013-01-17 11:16:00,34.0,27.5,29.32,ENE,63,11.9,11.9,77,0.00,,,0.00,VWS V14.01,2013-01-17 16:16:00,
2013-01-17 11:18:00,34.3,27.9,29.32,ENE,63,11.9,11.9,77,0.00,,,0.00,VWS V14.01,2013-01-17 16:18:00,
2013-01-17 11:19:00,34.3,27.9,29.32,East,84,8.1,11.9,77,0.00,,,0.00,VWS V14.01,2013-01-17 16:19:00,
2013-01-17 11:20:00,34.3,27.9,29.32,East,84,8.1,8.1,77,0.00,,,0.00,VWS V14.01,2013-01-17 16:20:00,
2013-01-17 11:21:00,34.3,27.9,29.32,East,85,5.4,8.1,77,0.00,,,0.00,VWS V14.01,2013-01-17 16:21:00,
2013-01-17 11:24:00,34.5,28.1,29.32,East,85,5.4,5.4,77,0.00,,,0.00,VWS V14.01,2013-01-17 16:24:00,
2013-01-17 11:25:00,34.5,28.1,29.32,ENE,68,8.7,8.7,77,0.00,,,0.00,VWS V14.01,2013-01-17 16:25:00,
2013-01-17 11:26:00,34.5,28.1,29.32,ENE,68,8.7,8.7,77,0.00,,,0.00,VWS V14.01,2013-01-17 16:26:00,
2013-01-17 11:29:00,34.5,28.1,29.32,ENE,68,8.7,8.7,77,0.00,,,0.00,VWS V14.01,2013-01-17 16:29:00,
2013-01-17 11:30:00,34.5,28.1,29.32,ENE,68,8.7,8.7,77,0.00,,,0.00,VWS V14.01,2013-01-17 16:30:00,
2013-01-17 11:31:00,34.5,28.1,29.32,ENE,68,8.7,8.7,77,0.00,,,0.00,VWS V14.01,2013-01-17 16:31:00,
2013-01-17 11:34:00,34.9,28.4,29.32,ENE,73,7.2,7.2,77,0.00,,,0.00,VWS V14.01,2013-01-17 16:34:00,
2013-01-17 11:35:00,34.9,28.1,29.32,ENE,73,7.2,7.2,76,0.00,,,0.00,VWS V14.01,2013-01-17 16:35:00,
2013-01-17 11:36:00,34.9,28.1,29.32,ENE,72,10.1,10.1,76,0.00,,,0.00,VWS V14.01,2013-01-17 16:36:00,
2013-01-17 11:39:00,34.9,28.1,29.32,NE,42,7.6,7.6,76,0.00,,,0.00,VWS V14.01,2013-01-17 16:39:00,
2013-01-17 11:41:00,34.9,28.1,29.32,NE,42,7.6,7.6,76,0.00,,,0.00,VWS V14.01,2013-01-17 16:41:00,
2013-01-17 11:44:00,34.9,28.1,29.32,ENE,62,11.0,11.0,76,0.00,,,0.00,VWS V14.01,2013-01-17 16:44:00,
2013-01-17 11:46:00,34.9,28.1,29.32,ENE,59,8.1,11.0,76,0.00,,,0.00,VWS V14.01,2013-01-17 16:46:00,
2013-01-17 11:49:00,34.9,28.1,29.32,ENE,74,10.1,10.1,76,0.00,,,0.00,VWS V14.01,2013-01-17 16:49:00,
2013-01-17 11:50:00,34.7,27.9,29.32,ENE,74,10.1,10.1,76,0.00,,,0.00,VWS V14.01,2013-01-17 16:50:00,
2013-01-17 11:51:00,34.9,28.1,29.32,ENE,74,10.1,10.1,76,0.00,,,0.00,VWS V14.01,2013-01-17 16:51:00,
2013-01-17 11:54:00,34.9,28.1,29.32,ENE,74,10.1,10.1,76,0.00,,,0.00,VWS V14.01,2013-01-17 16:54:00,
2013-01-17 11:55:00,34.9,28.1,29.32,ENE,74,10.1,10.1,76,0.00,,,0.00,VWS V14.01,2013-01-17 16:55:00,
2013-01-17 11:56:00,34.9,28.1,29.32,ENE,73,8.7,10.1,76,0.00,,,0.00,VWS V14.01,2013-01-17 16:56:00,
2013-01-17 11:59:00,35.1,28.3,29.32,ENE,66,12.3,12.3,76,0.00,,,0.00,VWS V14.01,2013-01-17 16:59:00,
2013-01-17 12:00:00,35.1,28.3,29.32,ENE,66,12.3,12.3,76,0.00,,,0.00,VWS V14.01,2013-01-17 17:00:00,
2013-01-17 12:01:00,35.2,28.5,29.32,ENE,66,12.3,12.3,76,0.00,,,0.00,VWS V14.01,2013-01-17 17:01:00,
2013-01-17 12:04:00,35.2,28.5,29.32,East,90,8.7,8.7,76,0.00,,,0.00,VWS V14.01,2013-01-17 17:04:00,
2013-01-17 12:05:00,35.2,28.5,29.32,East,90,8.7,8.7,76,0.00,,,0.00,VWS V14.01,2013-01-17 17:05:00,
2013-01-17 12:06:00,35.4,28.6,29.32,East,90,8.7,8.7,76,0.00,,,0.00,VWS V14.01,2013-01-17 17:06:00,
2013-01-17 12:09:00,35.4,28.6,29.32,East,88,8.7,8.7,76,0.00,,,0.00,VWS V14.01,2013-01-17 17:09:00,
2013-01-17 12:10:00,35.4,28.6,29.32,East,88,8.7,8.7,76,0.00,,,0.00,VWS V14.01,2013-01-17 17:10:00,
2013-01-17 12:11:00,35.4,28.6,29.32,ENE,69,8.3,8.7,76,0.00,,,0.00,VWS V14.01,2013-01-17 17:11:00,
2013-01-17 12:14:00,35.4,28.6,29.32,ENE,69,12.8,12.8,76,0.00,,,0.00,VWS V14.01,2013-01-17 17:14:00,
2013-01-17 12:15:00,35.4,28.6,29.32,ENE,69,12.8,12.8,76,0.00,,,0.00,VWS V14.01,2013-01-17 17:15:00,
2013-01-17 12:16:00,35.4,28.6,29.32,ENE,69,12.8,12.8,76,0.00,,,0.00,VWS V14.01,2013-01-17 17:16:00,
2013-01-17 12:20:00,35.4,28.6,29.32,ENE,69,12.8,12.8,76,0.00,,,0.00,VWS V14.01,2013-01-17 17:20:00,
2013-01-17 12:21:00,35.4,28.6,29.32,ENE,69,12.8,12.8,76,0.00,,,0.00,VWS V14.01,2013-01-17 17:21:00,
2013-01-17 12:25:00,35.6,28.8,29.29,ENE,69,12.8,12.8,76,0.00,,,0.00,VWS V14.01,2013-01-17 17:25:00,
2013-01-17 12:26:00,35.6,28.8,29.29,East,83,5.8,5.8,76,0.00,,,0.00,VWS V14.01,2013-01-17 17:26:00,
2013-01-17 12:30:00,35.6,28.8,29.29,NE,56,5.8,6.3,76,0.00,,,0.00,VWS V14.01,2013-01-17 17:30:00,
2013-01-17 12:31:00,36.0,29.1,29.29,ENE,67,11.0,11.0,76,0.00,,,0.00,VWS V14.01,2013-01-17 17:31:00,
2013-01-17 12:32:00,36.0,29.1,29.29,ENE,67,11.0,11.0,76,0.00,,,0.00,VWS V14.01,2013-01-17 17:32:00,
2013-01-17 12:35:00,35.8,29.0,29.29,ENE,67,11.0,11.0,76,0.00,,,0.00,VWS V14.01,2013-01-17 17:35:00,
2013-01-17 12:37:00,35.8,29.0,29.29,ENE,67,11.0,11.0,76,0.00,,,0.00,VWS V14.01,2013-01-17 17:37:00,
2013-01-17 12:40:00,35.8,29.0,29.29,East,82,5.8,5.8,76,0.00,,,0.00,VWS V14.01,2013-01-17 17:40:00,
2013-01-17 12:42:00,35.8,29.0,29.29,East,82,5.8,5.8,76,0.00,,,0.00,VWS V14.01,2013-01-17 17:42:00,
2013-01-17 12:45:00,35.8,29.0,29.29,NE,56,8.3,8.3,76,0.00,,,0.00,VWS V14.01,2013-01-17 17:45:00,
2013-01-17 12:47:00,35.8,29.0,29.29,NE,56,8.3,8.3,76,0.00,,,0.00,VWS V14.01,2013-01-17 17:47:00,
2013-01-17 12:50:00,35.8,29.0,29.29,NE,56,8.3,8.3,76,0.00,,,0.00,VWS V14.01,2013-01-17 17:50:00,
2013-01-17 12:52:00,35.6,28.8,29.29,NE,56,8.3,8.3,76,0.00,,,0.00,VWS V14.01,2013-01-17 17:52:00,
2013-01-17 12:55:00,35.6,28.8,29.29,ENE,70,3.1,13.6,76,0.00,,,0.00,VWS V14.01,2013-01-17 17:55:00,
2013-01-17 12:56:00,35.6,28.8,29.29,ENE,70,3.1,13.6,76,0.00,,,0.00,VWS V14.01,2013-01-17 17:56:00,
2013-01-17 12:57:00,35.4,28.6,29.29,ENE,70,3.1,3.1,76,0.00,,,0.00,VWS V14.01,2013-01-17 17:57:00,
2013-01-17 13:00:00,35.4,28.6,29.29,ENE,70,3.1,3.1,76,0.00,,,0.00,VWS V14.01,2013-01-17 18:00:00,
2013-01-17 13:01:00,35.4,28.6,29.29,ENE,70,3.1,3.1,76,0.00,,,0.00,VWS V14.01,2013-01-17 18:01:00,
2013-01-17 13:02:00,35.4,28.6,29.29,ENE,70,3.1,3.1,76,0.00,,,0.00,VWS V14.01,2013-01-17 18:02:00,
2013-01-17 13:05:00,35.4,28.6,29.29,ENE,62,6.3,10.1,76,0.00,,,0.00,VWS V14.01,2013-01-17 18:05:00,
2013-01-17 13:07:00,35.2,28.5,29.29,ENE,62,6.3,6.3,76,0.00,,,0.00,VWS V14.01,2013-01-17 18:07:00,
2013-01-17 13:10:00,35.4,28.6,29.29,ENE,62,6.3,6.3,76,0.00,,,0.00,VWS V14.01,2013-01-17 18:10:00,
2013-01-17 13:11:00,35.4,28.6,29.29,ENE,62,6.3,6.3,76,0.00,,,0.00,VWS V14.01,2013-01-17 18:11:00,
2013-01-17 13:12:00,35.4,28.6,29.29,ENE,62,6.3,6.3,76,0.00,,,0.00,VWS V14.01,2013-01-17 18:12:00,
2013-01-17 13:13:00,35.4,28.6,29.29,ENE,62,6.3,6.3,76,0.00,,,0.00,VWS V14.01,2013-01-17 18:13:00,
2013-01-17 13:16:00,35.6,28.8,29.29,NE,48,7.6,7.6,76,0.00,,,0.00,VWS V14.01,2013-01-17 18:16:00,
2013-01-17 13:17:00,35.6,28.8,29.29,NE,51,10.1,10.1,76,0.00,,,0.00,VWS V14.01,2013-01-17 18:17:00,
2013-01-17 13:18:00,35.6,28.8,29.29,NE,51,10.1,10.1,76,0.00,,,0.00,VWS V14.01,2013-01-17 18:18:00,
2013-01-17 13:21:00,35.6,28.8,29.29,East,82,10.5,10.5,76,0.00,,,0.00,VWS V14.01,2013-01-17 18:21:00,
2013-01-17 13:22:00,35.6,28.8,29.29,East,82,10.5,10.5,76,0.00,,,0.00,VWS V14.01,2013-01-17 18:22:00,
2013-01-17 13:23:00,35.6,28.8,29.29,East,82,10.5,10.5,76,0.00,,,0.00,VWS V14.01,2013-01-17 18:23:00,
2013-01-17 13:26:00,35.6,28.8,29.29,East,82,10.5,10.5,76,0.00,,,0.00,VWS V14.01,2013-01-17 18:26:00,
2013-01-17 13:27:00,35.6,28.8,29.29,East,82,10.5,10.5,76,0.00,,,0.00,VWS V14.01,2013-01-17 18:27:00,
2013-01-17 13:28:00,35.6,28.8,29.29,East,82,10.5,10.5,76,0.00,,,0.00,VWS V14.01,2013-01-17 18:28:00,
2013-01-17 13:31:00,35.6,28.8,29.29,ENE,65,7.6,7.6,76,0.00,,,0.00,VWS V14.01,2013-01-17 18:31:00,
2013-01-17 13:33:00,35.8,29.0,29.29,ENE,73,8.7,8.7,76,0.00,,,0.00,VWS V14.01,2013-01-17 18:33:00,
2013-01-17 13:36:00,35.8,29.0,29.29,ENE,73,8.7,8.7,76,0.00,,,0.00,VWS V14.01,2013-01-17 18:36:00,
2013-01-17 13:38:00,35.8,29.0,29.29,East,86,7.6,7.6,76,0.00,,,0.00,VWS V14.01,2013-01-17 18:38:00,
2013-01-17 13:41:00,36.0,29.1,29.29,East,86,7.6,7.6,76,0.00,,,0.00,VWS V14.01,2013-01-17 18:41:00,
2013-01-17 13:43:00,36.0,29.1,29.29,East,86,7.6,7.6,76,0.00,,,0.00,VWS V14.01,2013-01-17 18:43:00,
2013-01-17 13:46:00,36.1,29.3,29.29,ENE,58,8.1,8.1,76,0.00,,,0.00,VWS V14.01,2013-01-17 18:46:00,
2013-01-17 13:47:00,36.1,29.3,29.29,ENE,58,8.1,8.1,76,0.00,,,0.00,VWS V14.01,2013-01-17 18:47:00,
2013-01-17 13:48:00,36.1,29.3,29.29,ENE,66,9.6,9.6,76,0.00,,,0.00,VWS V14.01,2013-01-17 18:48:00,
2013-01-17 13:51:00,36.0,29.1,29.29,ENE,65,8.7,8.7,76,0.00,,,0.00,VWS V14.01,2013-01-17 18:51:00,
2013-01-17 13:52:00,36.0,29.1,29.29,ENE,65,8.7,8.7,76,0.00,,,0.00,VWS V14.01,2013-01-17 18:52:00,
2013-01-17 13:53:00,36.0,29.1,29.29,ENE,65,8.7,8.7,76,0.00,,,0.00,VWS V14.01,2013-01-17 18:53:00,
2013-01-17 13:56:00,36.0,29.1,29.29,ENE,65,8.7,8.7,76,0.00,,,0.00,VWS V14.01,2013-01-17 18:56:00,
2013-01-17 13:57:00,36.0,29.1,29.29,ENE,65,8.7,8.7,76,0.00,,,0.00,VWS V14.01,2013-01-17 18:57:00,
2013-01-17 13:58:00,35.6,28.8,29.29,ENE,65,8.7,8.7,76,0.00,,,0.00,VWS V14.01,2013-01-17 18:58:00,
2013-01-17 14:01:00,35.6,28.8,29.29,ENE,72,7.6,7.6,76,0.00,,,0.00,VWS V14.01,2013-01-17 19:01:00,
2013-01-17 14:02:00,35.6,28.8,29.29,ENE,72,7.6,7.6,76,0.00,,,0.00,VWS V14.01,2013-01-17 19:02:00,
2013-01-17 14:03:00,35.6,28.8,29.29,ENE,72,7.6,7.6,76,0.00,,,0.00,VWS V14.01,2013-01-17 19:03:00,
2013-01-17 14:06:00,35.6,28.8,29.29,ENE,72,7.6,7.6,76,0.00,,,0.00,VWS V14.01,2013-01-17 19:06:00,
2013-01-17 14:07:00,35.6,28.8,29.29,ENE,72,7.6,7.6,76,0.00,,,0.00,VWS V14.01,2013-01-17 19:07:00,
2013-01-17 14:08:00,35.6,28.8,29.29,ENE,72,7.6,7.6,76,0.00,,,0.00,VWS V14.01,2013-01-17 19:08:00,
2013-01-17 14:11:00,35.6,28.8,29.29,ENE,69,7.6,8.7,76,0.00,,,0.00,VWS V14.01,2013-01-17 19:11:00,
2013-01-17 14:12:00,35.6,28.8,29.29,ENE,64,11.9,11.9,76,0.00,,,0.00,VWS V14.01,2013-01-17 19:12:00,
2013-01-17 14:13:00,35.6,28.8,29.29,East,79,11.0,11.9,76,0.00,,,0.00,VWS V14.01,2013-01-17 19:13:00,
2013-01-17 14:16:00,35.1,28.3,29.29,East,79,11.0,11.0,76,0.00,,,0.00,VWS V14.01,2013-01-17 19:16:00,
2013-01-17 14:17:00,35.1,28.3,29.29,East,79,11.0,11.0,76,0.00,,,0.00,VWS V14.01,2013-01-17 19:17:00,
2013-01-17 14:18:00,35.1,28.3,29.29,East,79,11.0,11.0,76,0.00,,,0.00,VWS V14.01,2013-01-17 19:18:00,
2013-01-17 14:19:00,35.1,28.3,29.29,East,79,11.0,11.0,76,0.00,,,0.00,VWS V14.01,2013-01-17 19:19:00,
2013-01-17 14:21:00,35.1,28.3,29.29,ENE,73,13.2,13.2,76,0.00,,,0.00,VWS V14.01,2013-01-17 19:21:00,
2013-01-17 14:22:00,35.1,28.3,29.29,ENE,70,7.2,13.2,76,0.00,,,0.00,VWS V14.01,2013-01-17 19:22:00,
2013-01-17 14:23:00,34.5,27.8,29.29,ENE,70,11.0,11.0,76,0.00,,,0.00,VWS V14.01,2013-01-17 19:23:00,
2013-01-17 14:24:00,34.5,27.8,29.29,ENE,70,11.0,11.0,76,0.00,,,0.00,VWS V14.01,2013-01-17 19:24:00,
2013-01-17 14:27:00,34.5,27.8,29.29,NE,43,8.7,8.7,76,0.00,,,0.00,VWS V14.01,2013-01-17 19:27:00,
2013-01-17 14:28:00,34.5,27.8,29.29,NE,43,8.7,8.7,76,0.00,,,0.00,VWS V14.01,2013-01-17 19:28:00,
2013-01-17 14:29:00,34.5,27.8,29.29,NE,43,8.7,8.7,76,0.00,,,0.00,VWS V14.01,2013-01-17 19:29:00,
2013-01-17 14:32:00,34.5,27.8,29.29,NE,43,8.7,8.7,76,0.00,,,0.00,VWS V14.01,2013-01-17 19:32:00,
2013-01-17 14:34:00,34.3,27.6,29.29,NE,43,8.7,8.7,76,0.00,,,0.00,VWS V14.01,2013-01-17 19:34:00,
2013-01-17 14:37:00,34.2,27.4,29.29,NE,45,14.1,14.1,76,0.00,,,0.00,VWS V14.01,2013-01-17 19:37:00,
2013-01-17 14:39:00,34.2,27.4,29.29,East,81,12.8,14.1,76,0.00,,,0.00,VWS V14.01,2013-01-17 19:39:00,
2013-01-17 14:42:00,33.8,27.0,29.29,ENE,73,14.1,14.1,76,0.00,,,0.00,VWS V14.01,2013-01-17 19:42:00,
2013-01-17 14:44:00,33.8,27.0,29.29,ENE,73,14.1,14.1,76,0.00,,,0.00,VWS V14.01,2013-01-17 19:44:00,
2013-01-17 14:47:00,33.8,27.0,29.29,ENE,73,14.1,14.1,76,0.00,,,0.00,VWS V14.01,2013-01-17 19:47:00,
2013-01-17 14:48:00,33.8,27.0,29.29,ENE,68,12.8,14.1,76,0.00,,,0.00,VWS V14.01,2013-01-17 19:48:00,
2013-01-17 14:49:00,33.8,27.0,29.29,ENE,68,12.8,12.8,76,0.00,,,0.00,VWS V14.01,2013-01-17 19:49:00,
2013-01-17 14:52:00,33.6,27.2,29.29,ENE,57,8.3,12.8,77,0.00,,,0.00,VWS V14.01,2013-01-17 19:52:00,
2013-01-17 14:53:00,33.6,27.2,29.29,ENE,57,8.3,8.3,77,0.00,,,0.00,VWS V14.01,2013-01-17 19:53:00,
2013-01-17 14:54:00,33.6,27.2,29.29,ENE,68,10.1,10.1,77,0.00,,,0.00,VWS V14.01,2013-01-17 19:54:00,
2013-01-17 14:55:00,33.6,27.2,29.29,ENE,68,10.1,10.1,77,0.00,,,0.00,VWS V14.01,2013-01-17 19:55:00,
2013-01-17 14:57:00,33.8,27.0,29.29,NE,43,8.1,8.1,76,0.00,,,0.00,VWS V14.01,2013-01-17 19:57:00,
2013-01-17 14:58:00,33.8,27.0,29.29,NE,43,8.1,8.1,76,0.00,,,0.00,VWS V14.01,2013-01-17 19:58:00,
2013-01-17 14:59:00,33.6,27.2,29.29,NE,43,8.1,8.1,77,0.00,,,0.00,VWS V14.01,2013-01-17 19:59:00,
2013-01-17 15:00:00,33.6,27.2,29.29,NE,43,8.1,8.1,77,0.00,,,0.00,VWS V14.01,2013-01-17 20:00:00,
2013-01-17 15:02:00,33.4,27.0,29.29,NE,43,8.1,8.1,77,0.00,,,0.00,VWS V14.01,2013-01-17 20:02:00,
2013-01-17 15:03:00,33.4,27.0,29.29,NE,43,8.1,8.1,77,0.00,,,0.00,VWS V14.01,2013-01-17 20:03:00,
2013-01-17 15:04:00,33.4,27.0,29.29,NE,55,6.3,6.3,77,0.00,,,0.00,VWS V14.01,2013-01-17 20:04:00,
2013-01-17 15:05:00,33.4,27.0,29.29,ESE,105,13.2,13.2,77,0.00,,,0.00,VWS V14.01,2013-01-17 20:05:00,
2013-01-17 15:07:00,33.3,26.8,29.29,ENE,78,11.9,11.9,77,0.00,,,0.00,VWS V14.01,2013-01-17 20:07:00,
2013-01-17 15:08:00,33.3,26.8,29.29,ENE,78,11.9,11.9,77,0.00,,,0.00,VWS V14.01,2013-01-17 20:08:00,
2013-01-17 15:09:00,33.3,26.8,29.29,ENE,78,11.9,11.9,77,0.00,,,0.00,VWS V14.01,2013-01-17 20:09:00,
2013-01-17 15:10:00,33.3,26.8,29.29,ENE,78,11.9,11.9,77,0.00,,,0.00,VWS V14.01,2013-01-17 20:10:00,
2013-01-17 15:12:00,33.3,26.8,29.29,ENE,78,11.9,11.9,77,0.00,,,0.00,VWS V14.01,2013-01-17 20:12:00,
2013-01-17 15:13:00,33.3,26.8,29.29,ENE,78,11.9,11.9,77,0.00,,,0.00,VWS V14.01,2013-01-17 20:13:00,
2013-01-17 15:14:00,33.3,26.8,29.29,ENE,68,13.2,13.2,77,0.00,,,0.00,VWS V14.01,2013-01-17 20:14:00,
2013-01-17 15:15:00,33.3,26.8,29.29,ENE,67,7.6,13.2,77,0.00,,,0.00,VWS V14.01,2013-01-17 20:15:00,
2013-01-17 15:17:00,33.3,26.8,29.29,ENE,67,7.6,7.6,77,0.00,,,0.00,VWS V14.01,2013-01-17 20:17:00,
2013-01-17 15:18:00,33.3,26.8,29.29,ENE,67,7.6,7.6,77,0.00,,,0.00,VWS V14.01,2013-01-17 20:18:00,
2013-01-17 15:19:00,33.3,26.8,29.29,ENE,64,10.1,10.1,77,0.00,,,0.00,VWS V14.01,2013-01-17 20:19:00,
2013-01-17 15:20:00,33.3,26.8,29.29,ENE,64,10.1,10.1,77,0.00,,,0.00,VWS V14.01,2013-01-17 20:20:00,
2013-01-17 15:22:00,33.4,27.0,29.29,ENE,64,10.1,10.1,77,0.00,,,0.00,VWS V14.01,2013-01-17 20:22:00,
2013-01-17 15:23:00,33.4,27.0,29.29,ENE,64,10.1,10.1,77,0.00,,,0.00,VWS V14.01,2013-01-17 20:23:00,
2013-01-17 15:24:00,33.1,26.7,29.29,ENE,64,10.1,10.1,77,0.00,,,0.00,VWS V14.01,2013-01-17 20:24:00,
2013-01-17 15:25:00,33.1,26.7,29.29,ENE,64,10.1,10.1,77,0.00,,,0.00,VWS V14.01,2013-01-17 20:25:00,
2013-01-17 15:27:00,32.9,26.5,29.29,NE,50,12.8,12.8,77,0.00,,,0.00,VWS V14.01,2013-01-17 20:27:00,
2013-01-17 15:28:00,32.7,26.3,29.29,ENE,73,8.3,8.3,77,0.00,,,0.00,VWS V14.01,2013-01-17 20:28:00,
2013-01-17 15:30:00,32.7,26.3,29.29,ENE,62,10.5,10.5,77,0.00,,,0.00,VWS V14.01,2013-01-17 20:30:00,
2013-01-17 15:32:00,32.7,26.3,29.29,NE,45,8.7,8.7,77,0.00,,,0.00,VWS V14.01,2013-01-17 20:32:00,
2013-01-17 15:33:00,32.5,26.1,29.29,NE,45,8.7,8.7,77,0.00,,,0.00,VWS V14.01,2013-01-17 20:33:00,
2013-01-17 15:35:00,32.5,26.1,29.32,NE,45,8.7,8.7,77,0.00,,,0.00,VWS V14.01,2013-01-17 20:35:00,
2013-01-17 15:36:00,32.5,26.1,29.32,NE,45,8.7,8.7,77,0.00,,,0.00,VWS V14.01,2013-01-17 20:36:00,
2013-01-17 15:37:00,32.5,26.1,29.32,NE,45,8.7,8.7,77,0.00,,,0.00,VWS V14.01,2013-01-17 20:37:00,
2013-01-17 15:38:00,32.5,26.1,29.32,NE,45,8.7,8.7,77,0.00,,,0.00,VWS V14.01,2013-01-17 20:38:00,
2013-01-17 15:40:00,32.5,26.1,29.32,East,88,10.5,10.5,77,0.00,,,0.00,VWS V14.01,2013-01-17 20:40:00,
2013-01-17 15:41:00,32.5,26.1,29.32,East,88,10.5,10.5,77,0.00,,,0.00,VWS V14.01,2013-01-17 20:41:00,
2013-01-17 15:42:00,32.2,25.8,29.32,East,88,10.5,10.5,77,0.00,,,0.00,VWS V14.01,2013-01-17 20:42:00,
2013-01-17 15:43:00,32.2,25.8,29.32,East,88,10.5,10.5,77,0.00,,,0.00,VWS V14.01,2013-01-17 20:43:00,
2013-01-17 15:45:00,32.2,25.8,29.32,East,88,10.5,10.5,77,0.00,,,0.00,VWS V14.01,2013-01-17 20:45:00,
2013-01-17 15:46:00,32.2,25.8,29.32,ENE,67,7.6,7.6,77,0.00,,,0.00,VWS V14.01,2013-01-17 20:46:00,
2013-01-17 15:47:00,32.2,25.8,29.32,ENE,67,7.6,7.6,77,0.00,,,0.00,VWS V14.01,2013-01-17 20:47:00,
2013-01-17 15:48:00,32.2,25.8,29.32,ENE,68,8.1,8.1,77,0.00,,,0.00,VWS V14.01,2013-01-17 20:48:00,
2013-01-17 15:50:00,32.2,25.8,29.32,ENE,68,8.1,8.1,77,0.00,,,0.00,VWS V14.01,2013-01-17 20:50:00,
2013-01-17 15:51:00,32.2,25.8,29.32,ENE,68,8.1,8.1,77,0.00,,,0.00,VWS V14.01,2013-01-17 20:51:00,
2013-01-17 15:53:00,32.2,25.8,29.32,ENE,68,8.1,8.1,77,0.00,,,0.00,VWS V14.01,2013-01-17 20:53:00,
2013-01-17 15:54:00,32.0,25.6,29.32,ENE,68,8.1,8.1,77,0.00,,,0.00,VWS V14.01,2013-01-17 20:54:00,
2013-01-17 15:55:00,32.0,25.6,29.32,ENE,66,10.5,10.5,77,0.00,,,0.00,VWS V14.01,2013-01-17 20:55:00,
2013-01-17 15:57:00,32.0,25.6,29.32,ENE,69,10.5,10.5,77,0.00,,,0.00,VWS V14.01,2013-01-17 20:57:00,
2013-01-17 15:58:00,32.0,25.6,29.32,ENE,69,10.5,10.5,77,0.00,,,0.00,VWS V14.01,2013-01-17 20:58:00,
2013-01-17 15:59:00,31.6,25.3,29.32,ENE,61,11.0,16.8,77,0.00,,,0.00,VWS V14.01,2013-01-17 20:59:00,
2013-01-17 16:00:00,31.6,25.3,29.32,ENE,61,11.0,11.0,77,0.00,,,0.00,VWS V14.01,2013-01-17 21:00:00,
2013-01-17 16:02:00,31.6,25.3,29.32,NE,43,8.7,8.7,77,0.00,,,0.00,VWS V14.01,2013-01-17 21:02:00,
2013-01-17 16:03:00,31.6,25.3,29.32,NE,43,8.7,8.7,77,0.00,,,0.00,VWS V14.01,2013-01-17 21:03:00,
2013-01-17 16:04:00,31.3,24.9,29.32,NE,43,8.7,8.7,77,0.00,,,0.00,VWS V14.01,2013-01-17 21:04:00,
2013-01-17 16:05:00,31.3,24.9,29.32,NE,43,8.7,8.7,77,0.00,,,0.00,VWS V14.01,2013-01-17 21:05:00,
2013-01-17 16:07:00,31.1,24.8,29.32,NE,43,8.7,8.7,77,0.00,,,0.00,VWS V14.01,2013-01-17 21:07:00,
2013-01-17 16:08:00,31.1,24.8,29.32,NE,43,8.7,8.7,77,0.00,,,0.00,VWS V14.01,2013-01-17 21:08:00,
2013-01-17 16:09:00,31.1,24.8,29.32,NE,43,8.7,8.7,77,0.00,,,0.00,VWS V14.01,2013-01-17 21:09:00,
2013-01-17 16:10:00,31.1,24.8,29.32,NE,43,8.7,8.7,77,0.00,,,0.00,VWS V14.01,2013-01-17 21:10:00,
2013-01-17 16:12:00,31.1,24.8,29.32,ENE,68,8.7,8.7,77,0.00,,,0.00,VWS V14.01,2013-01-17 21:12:00,
2013-01-17 16:13:00,31.3,24.9,29.32,ENE,68,8.7,8.7,77,0.00,,,0.00,VWS V14.01,2013-01-17 21:13:00,
2013-01-17 16:14:00,31.3,24.9,29.32,ENE,68,8.7,8.7,77,0.00,,,0.00,VWS V14.01,2013-01-17 21:14:00,
2013-01-17 16:15:00,31.3,24.9,29.32,ENE,68,8.7,8.7,77,0.00,,,0.00,VWS V14.01,2013-01-17 21:15:00,
2013-01-17 16:17:00,31.5,25.1,29.32,ENE,68,8.7,8.7,77,0.00,,,0.00,VWS V14.01,2013-01-17 21:17:00,
2013-01-17 16:18:00,31.3,24.9,29.32,ENE,68,8.7,8.7,77,0.00,,,0.00,VWS V14.01,2013-01-17 21:18:00,
2013-01-17 16:19:00,31.3,24.9,29.32,ENE,68,8.7,8.7,77,0.00,,,0.00,VWS V14.01,2013-01-17 21:19:00,
2013-01-17 16:21:00,31.1,24.8,29.32,ENE,68,8.7,8.7,77,0.00,,,0.00,VWS V14.01,2013-01-17 21:21:00,
2013-01-17 16:22:00,31.1,24.8,29.32,ENE,72,8.7,8.7,77,0.00,,,0.00,VWS V14.01,2013-01-17 21:22:00,
2013-01-17 16:23:00,31.1,24.8,29.32,ENE,65,13.2,13.2,77,0.00,,,0.00,VWS V14.01,2013-01-17 21:23:00,
2013-01-17 16:24:00,31.1,24.8,29.32,ENE,65,13.2,13.2,77,0.00,,,0.00,VWS V14.01,2013-01-17 21:24:00,
2013-01-17 16:26:00,31.1,24.8,29.32,ENE,70,13.6,13.6,77,0.00,,,0.00,VWS V14.01,2013-01-17 21:26:00,
2013-01-17 16:27:00,31.1,24.8,29.32,ENE,70,13.6,13.6,77,0.00,,,0.00,VWS V14.01,2013-01-17 21:27:00,
2013-01-17 16:28:00,31.1,24.8,29.32,ENE,70,13.6,13.6,77,0.00,,,0.00,VWS V14.01,2013-01-17 21:28:00,
2013-01-17 16:29:00,31.1,24.8,29.32,ENE,70,13.6,13.6,77,0.00,,,0.00,VWS V14.01,2013-01-17 21:29:00,
2013-01-17 16:31:00,30.6,24.2,29.32,ENE,70,13.6,13.6,77,0.00,,,0.00,VWS V14.01,2013-01-17 21:31:00,
2013-01-17 16:32:00,30.6,24.2,29.32,ENE,67,11.0,13.6,77,0.00,,,0.00,VWS V14.01,2013-01-17 21:32:00,
2013-01-17 16:33:00,30.6,24.2,29.32,ENE,67,11.0,11.0,77,0.00,,,0.00,VWS V14.01,2013-01-17 21:33:00,
2013-01-17 16:35:00,30.6,24.2,29.32,ENE,73,11.0,11.0,77,0.00,,,0.00,VWS V14.01,2013-01-17 21:35:00,
2013-01-17 16:36:00,30.4,24.0,29.32,ENE,63,10.5,10.5,77,0.00,,,0.00,VWS V14.01,2013-01-17 21:36:00,
2013-01-17 16:37:00,30.4,24.0,29.32,ENE,63,10.5,10.5,77,0.00,,,0.00,VWS V14.01,2013-01-17 21:37:00,
2013-01-17 16:38:00,30.4,24.0,29.32,ENE,65,10.1,10.1,77,0.00,,,0.00,VWS V14.01,2013-01-17 21:38:00,
2013-01-17 16:40:00,30.4,24.0,29.32,ENE,65,10.1,10.1,77,0.00,,,0.00,VWS V14.01,2013-01-17 21:40:00,
2013-01-17 16:41:00,30.4,24.0,29.32,ENE,65,10.1,10.1,77,0.00,,,0.00,VWS V14.01,2013-01-17 21:41:00,
2013-01-17 16:42:00,30.0,23.7,29.32,ENE,65,10.1,10.1,77,0.00,,,0.00,VWS V14.01,2013-01-17 21:42:00,
2013-01-17 16:44:00,30.0,23.7,29.32,ENE,65,10.1,10.1,77,0.00,,,0.00,VWS V14.01,2013-01-17 21:44:00,
2013-01-17 16:45:00,30.0,23.7,29.32,ENE,65,10.1,10.1,77,0.00,,,0.00,VWS V14.01,2013-01-17 21:45:00,
2013-01-17 16:46:00,30.0,23.7,29.32,ENE,65,10.1,10.1,77,0.00,,,0.00,VWS V14.01,2013-01-17 21:46:00,
2013-01-17 16:47:00,30.0,23.7,29.32,East,84,7.6,7.6,77,0.00,,,0.00,VWS V14.01,2013-01-17 21:47:00,
2013-01-17 16:49:00,30.0,23.7,29.32,East,83,11.4,11.4,77,0.00,,,0.00,VWS V14.01,2013-01-17 21:49:00,
2013-01-17 16:50:00,30.0,23.7,29.35,East,83,11.4,11.4,77,0.00,,,0.00,VWS V14.01,2013-01-17 21:50:00,
2013-01-17 16:51:00,29.7,23.4,29.35,East,83,11.4,11.4,77,0.00,,,0.00,VWS V14.01,2013-01-17 21:51:00,
2013-01-17 16:52:00,29.7,23.4,29.35,NE,56,12.3,12.3,77,0.00,,,0.00,VWS V14.01,2013-01-17 21:52:00,
2013-01-17 16:54:00,29.5,23.2,29.35,NE,46,10.5,12.3,77,0.00,,,0.00,VWS V14.01,2013-01-17 21:54:00,
2013-01-17 16:55:00,29.5,23.2,29.35,NE,46,10.5,10.5,77,0.00,,,0.00,VWS V14.01,2013-01-17 21:55:00,
2013-01-17 16:56:00,29.5,23.2,29.35,NE,46,10.5,10.5,77,0.00,,,0.00,VWS V14.01,2013-01-17 21:56:00,
2013-01-17 16:58:00,29.5,23.2,29.35,East,82,10.1,10.1,77,0.00,,,0.00,VWS V14.01,2013-01-17 21:58:00,
2013-01-17 16:59:00,29.3,23.0,29.35,East,82,10.1,10.1,77,0.00,,,0.00,VWS V14.01,2013-01-17 21:59:00,
2013-01-17 17:00:00,29.3,23.0,29.35,East,82,10.1,10.1,77,0.00,,,0.00,VWS V14.01,2013-01-17 22:00:00,
2013-01-17 17:01:00,29.1,22.8,29.35,East,82,10.1,10.1,77,0.00,,,0.00,VWS V14.01,2013-01-17 22:01:00,
2013-01-17 17:03:00,29.1,22.8,29.35,East,82,10.1,10.1,77,0.00,,,0.00,VWS V14.01,2013-01-17 22:03:00,
2013-01-17 17:04:00,29.1,22.8,29.35,East,82,10.1,10.1,77,0.00,,,0.00,VWS V14.01,2013-01-17 22:04:00,
2013-01-17 17:05:00,29.1,22.8,29.35,ENE,62,7.6,11.0,77,0.00,,,0.00,VWS V14.01,2013-01-17 22:05:00,
2013-01-17 17:06:00,29.1,22.8,29.35,ENE,62,7.6,7.6,77,0.00,,,0.00,VWS V14.01,2013-01-17 22:06:00,
2013-01-17 17:08:00,29.1,22.8,29.35,ENE,65,8.7,8.7,77,0.00,,,0.00,VWS V14.01,2013-01-17 22:08:00,
2013-01-17 17:09:00,29.1,22.8,29.35,ENE,65,8.7,8.7,77,0.00,,,0.00,VWS V14.01,2013-01-17 22:09:00,
2013-01-17 17:10:00,28.9,22.6,29.35,ENE,65,8.7,8.7,77,0.00,,,0.00,VWS V14.01,2013-01-17 22:10:00,
2013-01-17 17:11:00,28.9,22.6,29.35,ENE,65,8.7,8.7,77,0.00,,,0.00,VWS V14.01,2013-01-17 22:11:00,
2013-01-17 17:13:00,28.9,22.6,29.35,ENE,64,10.5,10.5,77,0.00,,,0.00,VWS V14.01,2013-01-17 22:13:00,
2013-01-17 17:14:00,28.9,22.6,29.35,ENE,64,10.5,10.5,77,0.00,,,0.00,VWS V14.01,2013-01-17 22:14:00,
2013-01-17 17:15:00,28.9,22.6,29.35,NE,46,11.0,11.0,77,0.00,,,0.00,VWS V14.01,2013-01-17 22:15:00,
2013-01-17 17:16:00,28.9,22.6,29.35,NE,46,11.0,11.0,77,0.00,,,0.00,VWS V14.01,2013-01-17 22:16:00,
2013-01-17 17:18:00,28.8,22.5,29.35,NE,46,11.0,11.0,77,0.00,,,0.00,VWS V14.01,2013-01-17 22:18:00,
2013-01-17 17:19:00,28.8,22.5,29.35,ESE,121,5.4,5.4,77,0.00,,,0.00,VWS V14.01,2013-01-17 22:19:00,
2013-01-17 17:21:00,28.8,22.5,29.35,ESE,121,5.4,5.4,77,0.00,,,0.00,VWS V14.01,2013-01-17 22:21:00,
2013-01-17 17:23:00,28.8,22.5,29.35,ESE,121,5.4,5.4,77,0.00,,,0.00,VWS V14.01,2013-01-17 22:23:00,
2013-01-17 17:25:00,27.9,21.9,29.35,ENE,74,7.6,7.6,78,0.00,,,0.00,VWS V14.01,2013-01-17 22:25:00,
2013-01-17 17:26:00,27.9,21.9,29.35,ENE,74,7.6,7.6,78,0.00,,,0.00,VWS V14.01,2013-01-17 22:26:00,
2013-01-17 17:28:00,27.7,21.7,29.35,ENE,74,6.3,6.3,78,0.00,,,0.00,VWS V14.01,2013-01-17 22:28:00,
2013-01-17 17:30:00,27.7,21.7,29.35,ENE,74,6.3,6.3,78,0.00,,,0.00,VWS V14.01,2013-01-17 22:30:00,
2013-01-17 17:31:00,27.3,21.4,29.35,ENE,74,6.3,6.3,78,0.00,,,0.00,VWS V14.01,2013-01-17 22:31:00,
2013-01-17 17:33:00,27.3,21.4,29.35,ENE,63,4.9,4.9,78,0.00,,,0.00,VWS V14.01,2013-01-17 22:33:00,
2013-01-17 17:35:00,27.1,21.2,29.35,ENE,63,4.9,4.9,78,0.00,,,0.00,VWS V14.01,2013-01-17 22:35:00,
2013-01-17 17:36:00,27.0,21.0,29.35,ENE,63,4.9,4.9,78,0.00,,,0.00,VWS V14.01,2013-01-17 22:36:00,
2013-01-17 17:38:00,27.0,21.0,29.35,ENE,70,10.5,10.5,78,0.00,,,0.00,VWS V14.01,2013-01-17 22:38:00,
2013-01-17 17:40:00,27.0,21.0,29.35,East,97,5.4,10.1,78,0.00,,,0.00,VWS V14.01,2013-01-17 22:40:00,
2013-01-17 17:41:00,26.8,20.9,29.35,East,81,13.6,13.6,78,0.00,,,0.00,VWS V14.01,2013-01-17 22:41:00,
2013-01-17 17:43:00,26.8,20.9,29.35,East,81,13.6,13.6,78,0.00,,,0.00,VWS V14.01,2013-01-17 22:43:00,
2013-01-17 17:45:00,26.8,20.9,29.35,ENE,68,6.3,13.6,78,0.00,,,0.00,VWS V14.01,2013-01-17 22:45:00,
2013-01-17 17:46:00,26.8,20.9,29.35,ENE,68,6.3,6.3,78,0.00,,,0.00,VWS V14.01,2013-01-17 22:46:00,
2013-01-17 17:48:00,26.8,20.9,29.35,ENE,68,6.3,6.3,78,0.00,,,0.00,VWS V14.01,2013-01-17 22:48:00,
2013-01-17 17:50:00,26.8,20.9,29.38,East,86,7.6,7.6,78,0.00,,,0.00,VWS V14.01,2013-01-17 22:50:00,
2013-01-17 17:51:00,26.2,20.3,29.38,East,86,7.6,7.6,78,0.00,,,0.00,VWS V14.01,2013-01-17 22:51:00,
2013-01-17 17:53:00,26.2,20.3,29.38,East,86,7.6,7.6,78,0.00,,,0.00,VWS V14.01,2013-01-17 22:53:00,
2013-01-17 17:55:00,26.2,20.3,29.38,East,86,7.6,7.6,78,0.00,,,0.00,VWS V14.01,2013-01-17 22:55:00,
2013-01-17 17:56:00,26.2,20.3,29.38,East,86,7.6,7.6,78,0.00,,,0.43,VWS V14.01,2013-01-17 22:56:00,
2013-01-17 17:58:00,26.1,20.1,29.38,ENE,78,10.1,10.1,78,0.00,,,0.00,VWS V14.01,2013-01-17 22:58:00,
2013-01-17 18:00:00,26.1,20.1,29.38,East,79,7.6,11.0,78,0.00,,,0.00,VWS V14.01,2013-01-17 23:00:00,
2013-01-17 18:02:00,25.9,20.0,29.38,East,79,7.6,7.6,78,0.00,,,0.00,VWS V14.01,2013-01-17 23:02:00,
2013-01-17 18:03:00,25.9,20.0,29.38,East,87,12.8,12.8,78,0.00,,,0.00,VWS V14.01,2013-01-17 23:03:00,
2013-01-17 18:05:00,25.9,20.0,29.38,NNE,33,7.6,7.6,78,0.00,,,0.00,VWS V14.01,2013-01-17 23:05:00,
2013-01-17 18:07:00,25.9,20.0,29.38,East,82,8.7,8.7,78,0.00,,,0.00,VWS V14.01,2013-01-17 23:07:00,
2013-01-17 18:08:00,25.9,20.0,29.38,East,82,8.7,8.7,78,0.00,,,0.00,VWS V14.01,2013-01-17 23:08:00,
2013-01-17 18:10:00,25.9,20.0,29.38,East,90,6.3,11.0,78,0.00,,,0.00,VWS V14.01,2013-01-17 23:10:00,
2013-01-17 18:12:00,25.9,20.0,29.38,ENE,75,7.6,7.6,78,0.00,,,0.00,VWS V14.01,2013-01-17 23:12:00,
2013-01-17 18:13:00,25.9,20.0,29.38,ENE,71,7.6,7.6,78,0.00,,,0.00,VWS V14.01,2013-01-17 23:13:00,
2013-01-17 18:16:00,25.9,20.0,29.38,NE,43,11.0,11.0,78,0.00,,,0.00,VWS V14.01,2013-01-17 23:16:00,
2013-01-17 18:17:00,25.9,20.0,29.38,NE,43,11.0,11.0,78,0.00,,,0.00,VWS V14.01,2013-01-17 23:17:00,
2013-01-17 18:18:00,25.3,19.5,29.38,ESE,103,11.0,11.0,78,0.00,,,0.00,VWS V14.01,2013-01-17 23:18:00,
2013-01-17 18:21:00,25.3,19.5,29.38,ESE,103,11.0,11.0,78,0.00,,,0.00,VWS V14.01,2013-01-17 23:21:00,
2013-01-17 18:22:00,25.3,19.5,29.38,ESE,103,11.0,11.0,78,0.00,,,0.00,VWS V14.01,2013-01-17 23:22:00,
2013-01-17 18:23:00,25.3,19.5,29.38,ESE,103,11.0,11.0,78,0.00,,,0.00,VWS V14.01,2013-01-17 23:23:00,
2013-01-17 18:26:00,25.2,19.3,29.38,NE,46,6.3,6.3,78,0.00,,,0.00,VWS V14.01,2013-01-17 23:26:00,
2013-01-17 18:27:00,25.2,19.3,29.38,NE,46,6.3,6.3,78,0.00,,,0.00,VWS V14.01,2013-01-17 23:27:00,
2013-01-17 18:28:00,25.2,19.3,29.38,NE,46,6.3,6.3,78,0.00,,,0.00,VWS V14.01,2013-01-17 23:28:00,
2013-01-17 18:31:00,25.2,19.3,29.38,ENE,58,13.2,13.2,78,0.00,,,0.00,VWS V14.01,2013-01-17 23:31:00,
2013-01-17 18:32:00,25.2,19.3,29.38,ENE,67,14.5,14.5,78,0.00,,,0.00,VWS V14.01,2013-01-17 23:32:00,
2013-01-17 18:33:00,25.2,19.3,29.38,ENE,59,14.5,14.5,78,0.00,,,0.00,VWS V14.01,2013-01-17 23:33:00,
2013-01-17 18:34:00,25.2,19.3,29.38,ENE,59,14.5,14.5,78,0.00,,,0.00,VWS V14.01,2013-01-17 23:34:00,
2013-01-17 18:36:00,25.0,19.1,29.38,East,84,10.5,10.5,78,0.00,,,0.00,VWS V14.01,2013-01-17 23:36:00,
2013-01-17 18:37:00,25.0,19.1,29.38,East,84,10.5,10.5,78,0.00,,,0.00,VWS V14.01,2013-01-17 23:37:00,
2013-01-17 18:38:00,25.0,19.1,29.38,East,84,10.5,10.5,78,0.00,,,0.00,VWS V14.01,2013-01-17 23:38:00,
2013-01-17 18:39:00,25.0,19.1,29.38,ENE,65,5.8,5.8,78,0.00,,,0.00,VWS V14.01,2013-01-17 23:39:00,
2013-01-17 18:41:00,25.0,19.1,29.38,ENE,68,7.6,7.6,78,0.00,,,0.00,VWS V14.01,2013-01-17 23:41:00,
2013-01-17 18:42:00,25.0,19.1,29.38,ENE,68,7.6,7.6,78,0.00,,,0.00,VWS V14.01,2013-01-17 23:42:00,
2013-01-17 18:43:00,24.8,19.2,29.38,ENE,68,7.6,7.6,79,0.00,,,0.00,VWS V14.01,2013-01-17 23:43:00,
2013-01-17 18:44:00,24.8,19.2,29.38,East,90,7.6,7.6,79,0.00,,,0.00,VWS V14.01,2013-01-17 23:44:00,
2013-01-17 18:46:00,24.6,19.0,29.38,NNE,23,8.7,8.7,79,0.00,,,0.00,VWS V14.01,2013-01-17 23:46:00,
2013-01-17 18:47:00,24.6,19.0,29.38,NNE,23,8.7,8.7,79,0.00,,,0.00,VWS V14.01,2013-01-17 23:47:00,
2013-01-17 18:48:00,24.6,19.0,29.38,East,92,5.8,8.7,79,0.00,,,0.00,VWS V14.01,2013-01-17 23:48:00,
2013-01-17 18:49:00,24.6,19.0,29.38,East,92,5.8,5.8,79,0.00,,,0.00,VWS V14.01,2013-01-17 23:49:00,
2013-01-17 18:52:00,24.4,18.9,29.38,ENE,71,7.6,7.6,79,0.00,,,0.00,VWS V14.01,2013-01-17 23:52:00,
2013-01-17 18:53:00,24.4,18.9,29.38,ENE,71,7.6,7.6,79,0.00,,,0.00,VWS V14.01,2013-01-17 23:53:00,
2013-01-17 18:54:00,24.4,18.9,29.38,ENE,71,7.6,7.6,79,0.00,,,0.00,VWS V14.01,2013-01-17 23:54:00,
2013-01-17 18:57:00,24.4,18.9,29.38,NE,42,8.3,8.3,79,0.00,,,0.00,VWS V14.01,2013-01-17 23:57:00,
2013-01-17 18:58:00,24.4,18.9,29.38,NE,56,6.3,6.3,79,0.00,,,0.00,VWS V14.01,2013-01-17 23:58:00,
2013-01-17 18:59:00,24.4,18.9,29.38,NE,54,6.7,6.7,79,0.00,,,0.00,VWS V14.01,2013-01-17 23:59:00,
2013-01-17 19:02:00,24.4,18.9,29.38,NE,54,6.7,6.7,79,0.00,,,0.00,VWS V14.01,2013-01-18 00:02:00,
2013-01-17 19:04:00,24.3,18.7,29.38,ENE,67,9.2,9.2,79,0.00,,,0.00,VWS V14.01,2013-01-18 00:04:00,
2013-01-17 19:07:00,24.3,18.7,29.41,ENE,60,5.8,5.8,79,0.00,,,0.00,VWS V14.01,2013-01-18 00:07:00,
2013-01-17 19:09:00,24.3,18.7,29.41,ENE,60,5.8,5.8,79,0.00,,,0.00,VWS V14.01,2013-01-18 00:09:00,
2013-01-17 19:10:00,24.3,18.7,29.41,ENE,60,5.8,5.8,79,0.00,,,0.00,VWS V14.01,2013-01-18 00:10:00,
2013-01-17 19:12:00,24.3,18.7,29.41,ENE,60,5.8,5.8,79,0.00,,,0.00,VWS V14.01,2013-01-18 00:12:00,
2013-01-17 19:13:00,24.3,18.7,29.41,ENE,60,5.8,5.8,79,0.00,,,0.00,VWS V14.01,2013-01-18 00:13:00,
2013-01-17 19:14:00,24.3,18.7,29.41,ESE,102,5.8,5.8,79,0.00,,,0.00,VWS V14.01,2013-01-18 00:14:00,
2013-01-17 19:15:00,24.3,18.7,29.41,ESE,102,5.8,5.8,79,0.00,,,0.00,VWS V14.01,2013-01-18 00:15:00,
2013-01-17 19:17:00,24.3,18.7,29.41,ENE,62,5.8,5.8,79,0.00,,,0.00,VWS V14.01,2013-01-18 00:17:00,
2013-01-17 19:18:00,24.3,18.7,29.41,ENE,62,5.8,5.8,79,0.00,,,0.00,VWS V14.01,2013-01-18 00:18:00,
2013-01-17 19:19:00,24.1,18.5,29.41,NNE,24,7.6,7.6,79,0.00,,,0.00,VWS V14.01,2013-01-18 00:19:00,
2013-01-17 19:20:00,24.1,18.5,29.41,ENE,64,6.3,7.6,79,0.00,,,0.00,VWS V14.01,2013-01-18 00:20:00,
2013-01-17 19:22:00,24.1,18.5,29.41,East,82,6.3,6.3,79,0.00,,,0.00,VWS V14.01,2013-01-18 00:22:00,
2013-01-17 19:23:00,24.1,18.5,29.41,ENE,69,5.4,5.4,79,0.00,,,0.43,VWS V14.01,2013-01-18 00:23:00,
2013-01-17 19:24:00,24.1,18.5,29.41,ENE,70,6.3,6.3,79,0.00,,,0.00,VWS V14.01,2013-01-18 00:24:00,
2013-01-17 19:25:00,24.1,18.5,29.41,ENE,70,6.3,6.3,79,0.00,,,0.43,VWS V14.01,2013-01-18 00:25:00,
2013-01-17 19:27:00,24.1,18.5,29.41,ENE,64,5.8,6.3,79,0.00,,,0.00,VWS V14.01,2013-01-18 00:27:00,
2013-01-17 19:28:00,24.1,18.5,29.41,ENE,68,8.1,8.1,79,0.00,,,0.00,VWS V14.01,2013-01-18 00:28:00,
2013-01-17 19:29:00,24.1,18.5,29.41,ENE,68,8.1,8.1,79,0.00,,,0.00,VWS V14.01,2013-01-18 00:29:00,
2013-01-17 19:30:00,24.1,18.5,29.41,ENE,68,8.1,8.1,79,0.00,,,0.00,VWS V14.01,2013-01-18 00:30:00,
2013-01-17 19:32:00,24.1,18.5,29.41,ENE,76,7.2,7.2,79,0.00,,,0.00,VWS V14.01,2013-01-18 00:32:00,
2013-01-17 19:33:00,24.1,18.5,29.41,ENE,68,5.4,7.2,79,0.00,,,0.00,VWS V14.01,2013-01-18 00:33:00,
2013-01-17 19:34:00,23.9,18.4,29.41,East,84,8.1,8.1,79,0.00,,,0.00,VWS V14.01,2013-01-18 00:34:00,
2013-01-17 19:35:00,23.9,18.4,29.41,East,84,8.1,8.1,79,0.00,,,0.00,VWS V14.01,2013-01-18 00:35:00,
2013-01-17 19:37:00,23.9,18.4,29.41,ENE,58,6.3,6.3,79,0.00,,,0.00,VWS V14.01,2013-01-18 00:37:00,
2013-01-17 19:38:00,23.9,18.4,29.41,ENE,58,6.3,6.3,79,0.00,,,0.00,VWS V14.01,2013-01-18 00:38:00,
2013-01-17 19:39:00,23.9,18.4,29.41,ENE,75,6.3,6.3,79,0.00,,,0.00,VWS V14.01,2013-01-18 00:39:00,
2013-01-17 19:40:00,23.9,18.4,29.41,ENE,75,6.3,6.3,79,0.00,,,0.00,VWS V14.01,2013-01-18 00:40:00,
2013-01-17 19:42:00,23.9,18.4,29.41,East,90,6.3,6.3,79,0.00,,,0.00,VWS V14.01,2013-01-18 00:42:00,
2013-01-17 19:43:00,23.9,18.4,29.41,East,90,6.3,6.3,79,0.00,,,0.00,VWS V14.01,2013-01-18 00:43:00,
2013-01-17 19:44:00,23.9,18.4,29.41,East,80,5.4,6.3,79,0.00,,,0.00,VWS V14.01,2013-01-18 00:44:00,
2013-01-17 19:45:00,23.9,18.4,29.41,East,80,5.4,6.3,79,0.00,,,0.00,VWS V14.01,2013-01-18 00:45:00,
2013-01-17 19:47:00,23.9,18.4,29.41,ENE,71,7.6,7.6,79,0.00,,,0.00,VWS V14.01,2013-01-18 00:47:00,
2013-01-17 19:48:00,23.7,18.2,29.41,East,83,6.3,7.6,79,0.00,,,0.00,VWS V14.01,2013-01-18 00:48:00,
2013-01-17 19:49:00,23.7,18.2,29.41,ENE,65,5.4,5.4,79,0.00,,,0.00,VWS V14.01,2013-01-18 00:49:00,
2013-01-17 19:50:00,23.7,18.2,29.41,ENE,64,3.1,5.4,79,0.00,,,0.00,VWS V14.01,2013-01-18 00:50:00,
2013-01-17 19:52:00,23.7,18.2,29.41,East,79,2.7,3.1,79,0.00,,,0.00,VWS V14.01,2013-01-18 00:52:00,
2013-01-17 19:53:00,23.7,18.2,29.41,East,79,2.7,2.7,79,0.00,,,0.00,VWS V14.01,2013-01-18 00:53:00,
2013-01-17 19:54:00,23.7,18.2,29.41,ENE,67,5.4,5.4,79,0.00,,,0.00,VWS V14.01,2013-01-18 00:54:00,
2013-01-17 19:55:00,23.7,18.2,29.41,ENE,73,6.3,6.3,79,0.00,,,0.00,VWS V14.01,2013-01-18 00:55:00,
2013-01-17 19:57:00,23.7,18.2,29.41,NE,56,3.1,3.1,79,0.00,,,0.00,VWS V14.01,2013-01-18 00:57:00,
2013-01-17 19:58:00,23.7,18.2,29.41,NE,56,3.1,3.1,79,0.00,,,0.00,VWS V14.01,2013-01-18 00:58:00,
2013-01-17 19:59:00,23.7,18.2,29.41,ENE,63,5.4,5.4,79,0.00,,,0.00,VWS V14.01,2013-01-18 00:59:00,
2013-01-17 20:00:00,23.7,18.2,29.41,ENE,59,4.0,5.4,79,0.00,,,0.00,VWS V14.01,2013-01-18 01:00:00,
2013-01-17 20:02:00,23.5,18.0,29.41,ENE,72,5.4,5.4,79,0.00,,,0.00,VWS V14.01,2013-01-18 01:02:00,
2013-01-17 20:03:00,23.5,18.0,29.41,ENE,72,5.4,5.4,79,0.00,,,0.00,VWS V14.01,2013-01-18 01:03:00,
2013-01-17 20:04:00,23.5,18.0,29.41,ENE,72,5.4,5.4,79,0.00,,,0.00,VWS V14.01,2013-01-18 01:04:00,
2013-01-17 20:05:00,23.5,18.0,29.41,ENE,72,5.4,5.4,79,0.00,,,0.00,VWS V14.01,2013-01-18 01:05:00,
2013-01-17 20:07:00,23.5,18.0,29.41,ENE,60,4.0,5.4,79,0.00,,,0.00,VWS V14.01,2013-01-18 01:07:00,
2013-01-17 20:08:00,23.5,18.0,29.41,ENE,60,4.0,4.0,79,0.00,,,0.00,VWS V14.01,2013-01-18 01:08:00,
2013-01-17 20:10:00,23.4,17.8,29.41,ENE,76,5.4,5.4,79,0.00,,,0.00,VWS V14.01,2013-01-18 01:10:00,
2013-01-17 20:12:00,23.4,17.8,29.41,ENE,71,4.9,8.1,79,0.00,,,0.00,VWS V14.01,2013-01-18 01:12:00,
2013-01-17 20:13:00,23.4,17.8,29.41,ENE,71,4.9,4.9,79,0.00,,,0.00,VWS V14.01,2013-01-18 01:13:00,
2013-01-17 20:15:00,23.4,17.8,29.41,ENE,67,7.2,7.2,79,0.00,,,0.00,VWS V14.01,2013-01-18 01:15:00,
2013-01-17 20:17:00,23.4,17.8,29.41,ENE,67,5.8,5.8,79,0.00,,,0.00,VWS V14.01,2013-01-18 01:17:00,
2013-01-17 20:19:00,23.4,17.8,29.41,ENE,67,5.8,5.8,79,0.00,,,0.00,VWS V14.01,2013-01-18 01:19:00,
2013-01-17 20:20:00,23.4,17.8,29.44,ENE,67,5.8,5.8,79,0.00,,,0.00,VWS V14.01,2013-01-18 01:20:00,
2013-01-17 20:21:00,23.4,17.8,29.44,ENE,67,5.8,5.8,79,0.00,,,0.00,VWS V14.01,2013-01-18 01:21:00,
2013-01-17 20:22:00,23.4,17.8,29.44,ENE,75,7.6,7.6,79,0.00,,,0.00,VWS V14.01,2013-01-18 01:22:00,
2013-01-17 20:24:00,23.4,17.8,29.44,ENE,71,4.0,5.4,79,0.00,,,0.00,VWS V14.01,2013-01-18 01:24:00,
2013-01-17 20:25:00,23.4,17.8,29.44,ENE,71,4.0,4.0,79,0.00,,,0.00,VWS V14.01,2013-01-18 01:25:00,
2013-01-17 20:27:00,23.4,17.8,29.44,ENE,58,4.9,4.9,79,0.00,,,0.00,VWS V14.01,2013-01-18 01:27:00,
2013-01-17 20:29:00,23.4,17.8,29.44,NE,46,3.6,3.6,79,0.00,,,0.00,VWS V14.01,2013-01-18 01:29:00,
2013-01-17 20:30:00,23.4,17.8,29.44,ENE,70,3.1,3.1,79,0.00,,,0.00,VWS V14.01,2013-01-18 01:30:00,
2013-01-17 20:31:00,23.4,17.8,29.44,ENE,70,3.1,3.1,79,0.00,,,0.00,VWS V14.01,2013-01-18 01:31:00,
2013-01-17 20:32:00,23.4,17.8,29.44,ENE,70,3.1,3.1,79,0.00,,,0.00,VWS V14.01,2013-01-18 01:32:00,
2013-01-17 20:35:00,23.2,17.6,29.44,ENE,70,3.1,3.1,79,0.00,,,0.00,VWS V14.01,2013-01-18 01:35:00,
2013-01-17 20:36:00,23.2,17.6,29.44,ENE,70,3.1,3.1,79,0.00,,,0.00,VWS V14.01,2013-01-18 01:36:00,
2013-01-17 20:38:00,23.0,17.5,29.44,ENE,59,4.9,4.9,79,0.00,,,0.00,VWS V14.01,2013-01-18 01:38:00,
2013-01-17 20:40:00,23.0,17.5,29.44,ENE,69,4.0,4.0,79,0.00,,,0.00,VWS V14.01,2013-01-18 01:40:00,
2013-01-17 20:41:00,23.0,17.5,29.44,ENE,69,4.0,4.0,79,0.00,,,0.00,VWS V14.01,2013-01-18 01:41:00,
2013-01-17 20:43:00,23.0,17.5,29.44,ENE,69,2.7,2.7,79,0.00,,,0.00,VWS V14.01,2013-01-18 01:43:00,
2013-01-17 20:45:00,23.0,17.5,29.44,ENE,69,3.6,3.6,79,0.00,,,0.00,VWS V14.01,2013-01-18 01:45:00,
2013-01-17 20:46:00,22.8,17.3,29.44,ENE,69,3.6,3.6,79,0.00,,,0.00,VWS V14.01,2013-01-18 01:46:00,
2013-01-17 20:48:00,22.8,17.3,29.44,ENE,69,3.1,3.1,79,0.00,,,0.00,VWS V14.01,2013-01-18 01:48:00,
2013-01-17 20:50:00,22.8,17.3,29.44,ENE,69,2.2,2.2,79,0.00,,,0.00,VWS V14.01,2013-01-18 01:50:00,
2013-01-17 20:51:00,22.8,17.3,29.44,ENE,69,4.0,4.0,79,0.00,,,0.00,VWS V14.01,2013-01-18 01:51:00,
2013-01-17 20:53:00,22.6,17.1,29.44,ENE,70,4.0,4.0,79,0.00,,,0.00,VWS V14.01,2013-01-18 01:53:00,
2013-01-17 20:55:00,22.6,17.1,29.44,ENE,70,4.0,4.0,79,0.00,,,0.00,VWS V14.01,2013-01-18 01:55:00,
2013-01-17 20:56:00,22.6,17.1,29.44,ENE,64,3.1,4.0,79,0.00,,,0.00,VWS V14.01,2013-01-18 01:56:00,
2013-01-17 20:58:00,22.6,17.1,29.44,ENE,64,3.1,3.1,79,0.00,,,0.00,VWS V14.01,2013-01-18 01:58:00,
2013-01-17 21:00:00,22.6,17.1,29.44,ENE,63,4.0,4.0,79,0.00,,,0.00,VWS V14.01,2013-01-18 02:00:00,
2013-01-17 21:01:00,22.6,17.1,29.44,ENE,63,4.0,4.0,79,0.00,,,0.00,VWS V14.01,2013-01-18 02:01:00,
2013-01-17 21:03:00,22.6,17.1,29.44,ENE,63,4.0,4.0,79,0.00,,,0.00,VWS V14.01,2013-01-18 02:03:00,
2013-01-17 21:05:00,22.6,17.1,29.44,ENE,69,2.7,2.7,79,0.00,,,0.43,VWS V14.01,2013-01-18 02:05:00,
2013-01-17 21:06:00,22.6,17.1,29.44,ENE,69,2.7,3.1,79,0.00,,,0.00,VWS V14.01,2013-01-18 02:06:00,
2013-01-17 21:08:00,22.6,17.1,29.44,NE,50,2.7,2.7,79,0.00,,,0.00,VWS V14.01,2013-01-18 02:08:00,
2013-01-17 21:10:00,22.6,17.1,29.44,NE,50,3.6,3.6,79,0.00,,,0.00,VWS V14.01,2013-01-18 02:10:00,
2013-01-17 21:11:00,22.6,17.1,29.44,NE,50,3.6,3.6,79,0.00,,,0.00,VWS V14.01,2013-01-18 02:11:00,
2013-01-17 21:13:00,22.5,16.9,29.44,NE,50,3.1,3.1,79,0.00,,,0.00,VWS V14.01,2013-01-18 02:13:00,
2013-01-17 21:15:00,22.5,16.9,29.44,NE,50,3.1,3.1,79,0.00,,,0.00,VWS V14.01,2013-01-18 02:15:00,
2013-01-17 21:16:00,22.5,16.9,29.44,NE,50,3.1,3.1,79,0.00,,,0.00,VWS V14.01,2013-01-18 02:16:00,
2013-01-17 21:18:00,22.5,16.9,29.44,NE,49,0.0,0.0,79,0.00,,,0.00,VWS V14.01,2013-01-18 02:18:00,
2013-01-17 21:20:00,22.5,16.9,29.44,NE,49,2.7,2.7,79,0.00,,,0.00,VWS V14.01,2013-01-18 02:20:00,
2013-01-17 21:21:00,22.5,16.9,29.44,NE,49,2.7,2.7,79,0.00,,,0.00,VWS V14.01,2013-01-18 02:21:00,
2013-01-17 21:23:00,22.3,16.8,29.44,NE,49,0.0,0.0,79,0.00,,,0.00,VWS V14.01,2013-01-18 02:23:00,
2013-01-17 21:25:00,22.3,16.8,29.44,NE,49,0.0,0.0,79,0.00,,,0.00,VWS V14.01,2013-01-18 02:25:00,
2013-01-17 21:26:00,22.3,16.8,29.44,NE,46,3.6,3.6,79,0.00,,,0.00,VWS V14.01,2013-01-18 02:26:00,
2013-01-17 21:27:00,22.3,16.8,29.44,NE,46,3.6,3.6,79,0.00,,,0.00,VWS V14.01,2013-01-18 02:27:00,
2013-01-17 21:28:00,22.3,16.8,29.44,NE,46,3.6,3.6,79,0.00,,,0.00,VWS V14.01,2013-01-18 02:28:00,
2013-01-17 21:30:00,22.3,16.8,29.44,NE,46,2.2,3.6,79,0.00,,,0.00,VWS V14.01,2013-01-18 02:30:00,
2013-01-17 21:31:00,22.3,16.8,29.44,NE,46,0.0,0.0,79,0.00,,,0.00,VWS V14.01,2013-01-18 02:31:00,
2013-01-17 21:32:00,22.3,16.8,29.44,NE,46,0.0,0.0,79,0.00,,,0.00,VWS V14.01,2013-01-18 02:32:00,
2013-01-17 21:33:00,22.3,16.8,29.44,NE,46,2.2,2.2,79,0.00,,,0.00,VWS V14.01,2013-01-18 02:33:00,
2013-01-17 21:35:00,22.1,16.6,29.44,NE,46,2.2,2.2,79,0.00,,,0.00,VWS V14.01,2013-01-18 02:35:00,
2013-01-17 21:37:00,22.1,16.6,29.44,NE,46,0.0,0.0,79,0.00,,,0.00,VWS V14.01,2013-01-18 02:37:00,
2013-01-17 21:38:00,22.1,16.6,29.44,NE,46,0.0,0.0,79,0.00,,,0.00,VWS V14.01,2013-01-18 02:38:00,
2013-01-17 21:40:00,22.1,16.9,29.44,NE,46,0.0,0.0,80,0.00,,,0.00,VWS V14.01,2013-01-18 02:40:00,
2013-01-17 21:42:00,22.1,16.9,29.44,NE,46,0.0,0.0,80,0.00,,,0.00,VWS V14.01,2013-01-18 02:42:00,
2013-01-17 21:43:00,22.1,16.9,29.44,NE,46,0.0,0.0,80,0.00,,,0.00,VWS V14.01,2013-01-18 02:43:00,
2013-01-17 21:45:00,21.9,16.7,29.44,NE,46,0.0,0.0,80,0.00,,,0.00,VWS V14.01,2013-01-18 02:45:00,
2013-01-17 21:47:00,21.9,16.7,29.44,NE,46,0.0,0.0,80,0.00,,,0.00,VWS V14.01,2013-01-18 02:47:00,
2013-01-17 21:49:00,21.9,16.7,29.44,NE,46,0.0,0.0,80,0.00,,,0.00,VWS V14.01,2013-01-18 02:49:00,
2013-01-17 21:50:00,21.9,16.7,29.44,NE,46,0.0,0.0,80,0.00,,,0.00,VWS V14.01,2013-01-18 02:50:00,
2013-01-17 21:52:00,21.9,16.7,29.44,NE,46,0.0,0.0,80,0.00,,,0.00,VWS V14.01,2013-01-18 02:52:00,
2013-01-17 21:54:00,21.4,16.2,29.44,NE,46,0.0,0.0,80,0.00,,,0.00,VWS V14.01,2013-01-18 02:54:00,
2013-01-17 21:55:00,21.2,16.0,29.44,NE,46,0.0,0.0,80,0.00,,,0.00,VWS V14.01,2013-01-18 02:55:00,
2013-01-17 21:57:00,21.2,16.0,29.44,NE,46,0.0,0.0,80,0.00,,,0.00,VWS V14.01,2013-01-18 02:57:00,
2013-01-17 21:59:00,21.2,16.0,29.44,NE,46,0.0,0.0,80,0.00,,,0.00,VWS V14.01,2013-01-18 02:59:00,
2013-01-17 22:01:00,21.0,15.8,29.44,NE,46,0.0,0.0,80,0.00,,,0.00,VWS V14.01,2013-01-18 03:01:00,
2013-01-17 22:02:00,21.0,15.8,29.44,NE,46,0.0,0.0,80,0.00,,,0.00,VWS V14.01,2013-01-18 03:02:00,
2013-01-17 22:04:00,21.0,15.8,29.44,NE,46,0.0,0.0,80,0.00,,,0.00,VWS V14.01,2013-01-18 03:04:00,
2013-01-17 22:06:00,21.0,15.8,29.44,NE,46,0.0,0.0,80,0.00,,,0.00,VWS V14.01,2013-01-18 03:06:00,
2013-01-17 22:07:00,21.0,15.8,29.44,NE,46,0.0,0.0,80,0.00,,,0.00,VWS V14.01,2013-01-18 03:07:00,
2013-01-17 22:09:00,21.0,15.8,29.44,NE,46,0.0,0.0,80,0.00,,,0.00,VWS V14.01,2013-01-18 03:09:00,
2013-01-17 22:11:00,20.5,15.3,29.44,NE,46,0.0,0.0,80,0.00,,,0.00,VWS V14.01,2013-01-18 03:11:00,
2013-01-17 22:12:00,20.5,15.3,29.44,NE,46,0.0,0.0,80,0.00,,,0.00,VWS V14.01,2013-01-18 03:12:00,
2013-01-17 22:13:00,20.5,15.3,29.44,NE,46,0.0,0.0,80,0.00,,,0.00,VWS V14.01,2013-01-18 03:13:00,
2013-01-17 22:14:00,20.5,15.3,29.44,NE,46,0.0,0.0,80,0.00,,,0.00,VWS V14.01,2013-01-18 03:14:00,
2013-01-17 22:16:00,20.3,15.1,29.44,NE,46,0.0,0.0,80,0.00,,,0.00,VWS V14.01,2013-01-18 03:16:00,
2013-01-17 22:17:00,20.3,15.1,29.44,NE,46,0.0,0.0,80,0.00,,,0.00,VWS V14.01,2013-01-18 03:17:00,
2013-01-17 22:18:00,20.3,15.1,29.44,NE,46,0.0,0.0,80,0.00,,,0.00,VWS V14.01,2013-01-18 03:18:00,
2013-01-17 22:19:00,20.3,15.1,29.44,NE,46,0.0,0.0,80,0.00,,,0.00,VWS V14.01,2013-01-18 03:19:00,
2013-01-17 22:21:00,20.3,15.1,29.44,NE,46,0.0,0.0,80,0.00,,,0.00,VWS V14.01,2013-01-18 03:21:00,
2013-01-17 22:22:00,20.3,15.1,29.44,NE,46,2.7,2.7,80,0.00,,,0.00,VWS V14.01,2013-01-18 03:22:00,
2013-01-17 22:23:00,20.3,15.1,29.44,NE,46,3.1,3.1,80,0.00,,,0.00,VWS V14.01,2013-01-18 03:23:00,
2013-01-17 22:24:00,20.3,15.1,29.44,NE,46,0.0,3.1,80,0.00,,,0.00,VWS V14.01,2013-01-18 03:24:00,
2013-01-17 22:26:00,20.3,15.1,29.44,NE,46,2.7,2.7,80,0.00,,,0.00,VWS V14.01,2013-01-18 03:26:00,
2013-01-17 22:27:00,20.3,15.1,29.44,NE,46,2.7,2.7,80,0.00,,,0.00,VWS V14.01,2013-01-18 03:27:00,
2013-01-17 22:28:00,20.3,15.1,29.44,NE,46,2.7,2.7,80,0.00,,,0.00,VWS V14.01,2013-01-18 03:28:00,
2013-01-17 22:29:00,20.3,15.1,29.44,NE,46,2.7,2.7,80,0.00,,,0.00,VWS V14.01,2013-01-18 03:29:00,
2013-01-17 22:31:00,20.3,15.1,29.44,NE,46,2.7,2.7,80,0.00,,,0.00,VWS V14.01,2013-01-18 03:31:00,
2013-01-17 22:32:00,20.3,15.1,29.44,NE,46,2.2,2.2,80,0.00,,,0.00,VWS V14.01,2013-01-18 03:32:00,
2013-01-17 22:33:00,20.3,15.1,29.44,NE,46,2.2,2.2,80,0.00,,,0.00,VWS V14.01,2013-01-18 03:33:00,
2013-01-17 22:34:00,20.3,15.1,29.44,NE,46,2.2,2.2,80,0.00,,,0.00,VWS V14.01,2013-01-18 03:34:00,
2013-01-17 22:36:00,20.8,15.9,29.44,NE,46,2.2,2.2,81,0.00,,,0.00,VWS V14.01,2013-01-18 03:36:00,
2013-01-17 22:38:00,20.8,15.9,29.44,NE,46,2.7,2.7,81,0.00,,,0.00,VWS V14.01,2013-01-18 03:38:00,
2013-01-17 22:39:00,20.8,15.9,29.44,NE,46,2.7,2.7,81,0.00,,,0.00,VWS V14.01,2013-01-18 03:39:00,
2013-01-17 22:41:00,20.8,15.9,29.44,NE,46,2.7,2.7,81,0.00,,,0.00,VWS V14.01,2013-01-18 03:41:00,
2013-01-17 22:43:00,20.8,15.9,29.44,North,7,3.6,3.6,81,0.00,,,0.00,VWS V14.01,2013-01-18 03:43:00,
2013-01-17 22:45:00,20.8,15.9,29.44,North,7,3.1,3.1,81,0.00,,,0.00,VWS V14.01,2013-01-18 03:45:00,
2013-01-17 22:46:00,21.2,16.3,29.44,North,7,3.1,3.1,81,0.00,,,0.00,VWS V14.01,2013-01-18 03:46:00,
2013-01-17 22:48:00,21.2,16.3,29.44,North,7,2.7,2.7,81,0.00,,,0.00,VWS V14.01,2013-01-18 03:48:00,
2013-01-17 22:49:00,21.2,16.3,29.44,North,7,2.7,2.7,81,0.00,,,0.00,VWS V14.01,2013-01-18 03:49:00,
2013-01-17 22:50:00,21.2,16.3,29.44,North,7,3.1,3.1,81,0.00,,,0.00,VWS V14.01,2013-01-18 03:50:00,
2013-01-17 22:52:00,21.2,16.3,29.44,North,7,3.6,3.6,81,0.00,,,0.00,VWS V14.01,2013-01-18 03:52:00,
2013-01-17 22:53:00,21.4,16.5,29.44,North,7,3.6,3.6,81,0.00,,,0.00,VWS V14.01,2013-01-18 03:53:00,
2013-01-17 22:54:00,21.4,16.5,29.44,North,7,3.6,3.6,81,0.00,,,0.00,VWS V14.01,2013-01-18 03:54:00,
2013-01-17 22:55:00,21.4,16.5,29.44,North,7,3.6,3.6,81,0.00,,,0.00,VWS V14.01,2013-01-18 03:55:00,
2013-01-17 22:57:00,21.4,16.5,29.44,North,7,2.7,3.6,81,0.00,,,0.00,VWS V14.01,2013-01-18 03:57:00,
2013-01-17 22:58:00,21.6,16.4,29.44,North,7,4.5,4.5,80,0.00,,,0.00,VWS V14.01,2013-01-18 03:58:00,
2013-01-17 22:59:00,21.6,16.4,29.44,North,7,4.5,4.5,80,0.00,,,0.00,VWS V14.01,2013-01-18 03:59:00,
2013-01-17 23:00:00,21.6,16.4,29.44,North,7,4.5,4.5,80,0.00,,,0.00,VWS V14.01,2013-01-18 04:00:00,
2013-01-17 23:02:00,21.6,16.4,29.44,North,7,4.5,4.5,80,0.00,,,0.00,VWS V14.01,2013-01-18 04:02:00,
2013-01-17 23:03:00,21.6,16.4,29.44,North,7,4.5,4.5,80,0.00,,,0.00,VWS V14.01,2013-01-18 04:03:00,
2013-01-17 23:04:00,21.6,16.4,29.44,North,4,3.6,4.5,80,0.00,,,0.00,VWS V14.01,2013-01-18 04:04:00,
2013-01-17 23:05:00,21.6,16.4,29.44,North,4,3.6,3.6,80,0.00,,,0.00,VWS V14.01,2013-01-18 04:05:00,
2013-01-17 23:07:00,21.6,16.4,29.44,North,4,3.6,3.6,80,0.00,,,0.00,VWS V14.01,2013-01-18 04:07:00,
2013-01-17 23:08:00,21.6,16.4,29.44,North,4,3.6,3.6,80,0.00,,,0.00,VWS V14.01,2013-01-18 04:08:00,
2013-01-17 23:09:00,21.6,16.4,29.44,North,4,3.6,3.6,80,0.00,,,0.00,VWS V14.01,2013-01-18 04:09:00,
2013-01-17 23:10:00,21.6,16.4,29.44,North,4,3.6,3.6,80,0.00,,,0.00,VWS V14.01,2013-01-18 04:10:00,
2013-01-17 23:12:00,21.7,16.5,29.44,North,6,4.0,4.0,80,0.00,,,0.00,VWS V14.01,2013-01-18 04:12:00,
2013-01-17 23:13:00,21.7,16.5,29.44,North,6,4.0,4.0,80,0.00,,,0.00,VWS V14.01,2013-01-18 04:13:00,
2013-01-17 23:14:00,21.9,16.7,29.44,North,6,4.0,4.0,80,0.00,,,0.00,VWS V14.01,2013-01-18 04:14:00,
2013-01-17 23:15:00,21.9,16.7,29.44,North,6,4.0,4.0,80,0.00,,,0.00,VWS V14.01,2013-01-18 04:15:00,
2013-01-17 23:17:00,21.9,16.7,29.44,North,6,2.7,4.0,80,0.00,,,0.00,VWS V14.01,2013-01-18 04:17:00,
2013-01-17 23:18:00,21.9,16.7,29.44,North,6,5.4,5.4,80,0.00,,,0.00,VWS V14.01,2013-01-18 04:18:00,
2013-01-17 23:19:00,21.9,16.7,29.44,North,6,5.4,5.4,80,0.00,,,0.00,VWS V14.01,2013-01-18 04:19:00,
2013-01-17 23:20:00,21.9,16.7,29.44,North,6,5.4,5.4,80,0.00,,,0.00,VWS V14.01,2013-01-18 04:20:00,
2013-01-17 23:22:00,21.9,17.0,29.44,North,1,3.6,3.6,81,0.00,,,0.00,VWS V14.01,2013-01-18 04:22:00,
2013-01-17 23:23:00,21.9,17.0,29.44,North,1,3.6,3.6,81,0.00,,,0.43,VWS V14.01,2013-01-18 04:23:00,
2013-01-17 23:24:00,21.9,17.0,29.44,North,357,3.6,3.6,81,0.00,,,0.00,VWS V14.01,2013-01-18 04:24:00,
2013-01-17 23:25:00,21.9,17.0,29.44,North,357,3.6,3.6,81,0.00,,,0.00,VWS V14.01,2013-01-18 04:25:00,
2013-01-17 23:27:00,22.1,17.2,29.44,North,357,3.6,3.6,81,0.00,,,0.00,VWS V14.01,2013-01-18 04:27:00,
2013-01-17 23:29:00,22.1,17.2,29.44,North,1,4.0,4.0,81,0.00,,,0.00,VWS V14.01,2013-01-18 04:29:00,
2013-01-17 23:30:00,22.1,17.2,29.44,North,357,4.0,4.0,81,0.00,,,0.00,VWS V14.01,2013-01-18 04:30:00,
2013-01-17 23:32:00,22.1,16.9,29.44,North,0,4.9,4.9,80,0.00,,,0.00,VWS V14.01,2013-01-18 04:32:00,
2013-01-17 23:34:00,22.1,16.9,29.44,North,0,4.9,4.9,80,0.00,,,0.00,VWS V14.01,2013-01-18 04:34:00,
2013-01-17 23:35:00,22.1,16.9,29.44,North,357,4.0,4.0,80,0.00,,,0.00,VWS V14.01,2013-01-18 04:35:00,
2013-01-17 23:38:00,22.1,16.9,29.44,North,357,4.0,4.0,80,0.00,,,0.00,VWS V14.01,2013-01-18 04:38:00,
2013-01-17 23:39:00,22.1,16.9,29.44,North,357,4.0,4.0,80,0.00,,,0.00,VWS V14.01,2013-01-18 04:39:00,
2013-01-17 23:41:00,22.1,16.9,29.44,North,11,2.7,2.7,80,0.00,,,0.00,VWS V14.01,2013-01-18 04:41:00,
2013-01-17 23:43:00,22.1,16.9,29.44,North,0,6.3,6.3,80,0.00,,,0.00,VWS V14.01,2013-01-18 04:43:00,
2013-01-17 23:44:00,22.1,16.9,29.44,North,357,4.0,6.3,80,0.00,,,0.00,VWS V14.01,2013-01-18 04:44:00,
2013-01-17 23:46:00,22.1,16.9,29.44,NNE,16,4.0,4.0,80,0.00,,,0.00,VWS V14.01,2013-01-18 04:46:00,
2013-01-17 23:48:00,22.1,16.9,29.44,NNE,16,4.0,4.0,80,0.00,,,0.00,VWS V14.01,2013-01-18 04:48:00,
2013-01-17 23:49:00,22.1,16.9,29.44,North,357,5.4,5.4,80,0.00,,,0.00,VWS V14.01,2013-01-18 04:49:00,
2013-01-17 23:50:00,22.1,16.9,29.44,North,357,3.6,5.4,80,0.00,,,0.00,VWS V14.01,2013-01-18 04:50:00,
2013-01-17 23:51:00,22.1,16.9,29.44,North,357,2.2,3.6,80,0.00,,,0.00,VWS V14.01,2013-01-18 04:51:00,
2013-01-17 23:53:00,22.1,16.9,29.44,NNE,18,4.0,4.0,80,0.00,,,0.00,VWS V14.01,2013-01-18 04:53:00,
2013-01-17 23:54:00,22.1,16.9,29.44,NNE,18,4.0,4.0,80,0.00,,,0.00,VWS V14.01,2013-01-18 04:54:00,
2013-01-17 23:55:00,22.1,16.9,29.44,NNE,18,4.0,4.0,80,0.00,,,0.00,VWS V14.01,2013-01-18 04:55:00,
2013-01-17 23:56:00,22.1,16.9,29.44,NNE,18,4.0,4.0,80,0.00,,,0.00,VWS V14.01,2013-01-18 04:56:00,
2013-01-17 23:58:00,22.1,16.9,29.44,NE,41,3.1,3.1,80,0.00,,,0.00,VWS V14.01,2013-01-18 04:58:00,
2013-01-17 23:59:00,22.1,16.9,29.44,NE,41,3.1,3.1,80,0.00,,,0.00,VWS V14.01,2013-01-18 04:59:00,